<?xml version="1.0" encoding="UTF-8" standalone="no" ?>
<gpx xmlns="http://www.topografix.com/GPX/1/1" xmlns:xsi="http://www.w3.org/2001/XMLSchema-instance" xsi:schemaLocation="http://www.topografix.com/GPX/1/1 http://www.topografix.com/GPX/1/1/gpx.xsd" version="1.1" creator="VisuGPX - https://www.visugpx.com">
  <metadata>
    <name>Biaud ( Périgneux) - St Bonnet le Château</name>
    <desc><![CDATA[18-04-2022 attention départ d'un lieu privé donc interdit au public]]></desc>
  </metadata>
  <trk>
    <name><![CDATA[2022-04-18 16:38:34]]></name>
    <extensions>
      <line xmlns="http://www.topografix.com/GPX/gpx_style/0/2">
        <color>0000FF</color>
        <width>4</width>
      </line>
    </extensions>
    <trkseg>
      <trkpt lat="45.44564" lon="4.13058">
        <ele>587.98</ele>
        <time>2022-04-18T07:02:46Z</time>
      </trkpt>
      <trkpt lat="45.44564" lon="4.13063">
        <ele>595.19</ele>
        <time>2022-04-18T07:02:55Z</time>
      </trkpt>
      <trkpt lat="45.44567" lon="4.13081">
        <ele>645.18</ele>
        <time>2022-04-18T07:45:31Z</time>
      </trkpt>
      <trkpt lat="45.44569" lon="4.13074">
        <ele>631.24</ele>
        <time>2022-04-18T07:46:04Z</time>
      </trkpt>
      <trkpt lat="45.4457" lon="4.13073">
        <ele>631.72</ele>
        <time>2022-04-18T07:46:34Z</time>
      </trkpt>
      <trkpt lat="45.44571" lon="4.13074">
        <ele>631.72</ele>
        <time>2022-04-18T07:47:09Z</time>
      </trkpt>
      <trkpt lat="45.4457" lon="4.13074">
        <ele>630.76</ele>
        <time>2022-04-18T07:47:37Z</time>
      </trkpt>
      <trkpt lat="45.44569" lon="4.13074">
        <ele>630.28</ele>
        <time>2022-04-18T07:48:08Z</time>
      </trkpt>
      <trkpt lat="45.44569" lon="4.13073">
        <ele>629.8</ele>
        <time>2022-04-18T07:48:35Z</time>
      </trkpt>
      <trkpt lat="45.4457" lon="4.13075">
        <ele>628.84</ele>
        <time>2022-04-18T07:49:10Z</time>
      </trkpt>
      <trkpt lat="45.44569" lon="4.13075">
        <ele>630.76</ele>
        <time>2022-04-18T07:49:35Z</time>
      </trkpt>
      <trkpt lat="45.4457" lon="4.13075">
        <ele>629.8</ele>
        <time>2022-04-18T07:50:05Z</time>
      </trkpt>
      <trkpt lat="45.44568" lon="4.13077">
        <ele>630.28</ele>
        <time>2022-04-18T07:50:27Z</time>
      </trkpt>
      <trkpt lat="45.44574" lon="4.13081">
        <ele>632.2</ele>
        <time>2022-04-18T07:50:46Z</time>
      </trkpt>
      <trkpt lat="45.4457" lon="4.13085">
        <ele>634.61</ele>
        <time>2022-04-18T07:51:06Z</time>
      </trkpt>
      <trkpt lat="45.44571" lon="4.13084">
        <ele>634.61</ele>
        <time>2022-04-18T07:51:34Z</time>
      </trkpt>
      <trkpt lat="45.4457" lon="4.13082">
        <ele>637.01</ele>
        <time>2022-04-18T07:52:05Z</time>
      </trkpt>
      <trkpt lat="45.44563" lon="4.13088">
        <ele>636.53</ele>
        <time>2022-04-18T07:52:20Z</time>
      </trkpt>
      <trkpt lat="45.4456" lon="4.13096">
        <ele>634.61</ele>
        <time>2022-04-18T07:52:25Z</time>
      </trkpt>
      <trkpt lat="45.4456" lon="4.13103">
        <ele>632.68</ele>
        <time>2022-04-18T07:52:29Z</time>
      </trkpt>
      <trkpt lat="45.44575" lon="4.13117">
        <ele>630.76</ele>
        <time>2022-04-18T07:52:45Z</time>
      </trkpt>
      <trkpt lat="45.44579" lon="4.13109">
        <ele>631.24</ele>
        <time>2022-04-18T07:52:50Z</time>
      </trkpt>
      <trkpt lat="45.44589" lon="4.13081">
        <ele>630.28</ele>
        <time>2022-04-18T07:53:07Z</time>
      </trkpt>
      <trkpt lat="45.44598" lon="4.1305">
        <ele>630.76</ele>
        <time>2022-04-18T07:53:24Z</time>
      </trkpt>
      <trkpt lat="45.44614" lon="4.13014">
        <ele>635.57</ele>
        <time>2022-04-18T07:53:46Z</time>
      </trkpt>
      <trkpt lat="45.44624" lon="4.12972">
        <ele>638.45</ele>
        <time>2022-04-18T07:54:08Z</time>
      </trkpt>
      <trkpt lat="45.44633" lon="4.12931">
        <ele>642.78</ele>
        <time>2022-04-18T07:54:30Z</time>
      </trkpt>
      <trkpt lat="45.44642" lon="4.129">
        <ele>643.26</ele>
        <time>2022-04-18T07:54:52Z</time>
      </trkpt>
      <trkpt lat="45.44642" lon="4.12896">
        <ele>643.74</ele>
        <time>2022-04-18T07:54:57Z</time>
      </trkpt>
      <trkpt lat="45.4462" lon="4.12887">
        <ele>643.26</ele>
        <time>2022-04-18T07:55:16Z</time>
      </trkpt>
      <trkpt lat="45.44588" lon="4.12866">
        <ele>644.7</ele>
        <time>2022-04-18T07:55:43Z</time>
      </trkpt>
      <trkpt lat="45.44559" lon="4.12846">
        <ele>644.7</ele>
        <time>2022-04-18T07:56:07Z</time>
      </trkpt>
      <trkpt lat="45.4452" lon="4.12818">
        <ele>643.74</ele>
        <time>2022-04-18T07:56:37Z</time>
      </trkpt>
      <trkpt lat="45.44486" lon="4.12787">
        <ele>644.22</ele>
        <time>2022-04-18T07:57:06Z</time>
      </trkpt>
      <trkpt lat="45.4445" lon="4.12739">
        <ele>644.22</ele>
        <time>2022-04-18T07:57:41Z</time>
      </trkpt>
      <trkpt lat="45.44417" lon="4.12694">
        <ele>644.7</ele>
        <time>2022-04-18T07:58:14Z</time>
      </trkpt>
      <trkpt lat="45.44394" lon="4.1265">
        <ele>645.18</ele>
        <time>2022-04-18T07:58:42Z</time>
      </trkpt>
      <trkpt lat="45.44387" lon="4.12638">
        <ele>645.18</ele>
        <time>2022-04-18T07:59:01Z</time>
      </trkpt>
      <trkpt lat="45.44386" lon="4.12634">
        <ele>645.18</ele>
        <time>2022-04-18T07:59:29Z</time>
      </trkpt>
      <trkpt lat="45.44378" lon="4.12618">
        <ele>644.22</ele>
        <time>2022-04-18T07:59:43Z</time>
      </trkpt>
      <trkpt lat="45.44361" lon="4.12578">
        <ele>645.66</ele>
        <time>2022-04-18T08:00:07Z</time>
      </trkpt>
      <trkpt lat="45.44341" lon="4.12528">
        <ele>645.18</ele>
        <time>2022-04-18T08:00:35Z</time>
      </trkpt>
      <trkpt lat="45.44324" lon="4.12473">
        <ele>645.66</ele>
        <time>2022-04-18T08:01:04Z</time>
      </trkpt>
      <trkpt lat="45.44301" lon="4.12424">
        <ele>646.62</ele>
        <time>2022-04-18T08:01:33Z</time>
      </trkpt>
      <trkpt lat="45.44274" lon="4.12373">
        <ele>647.1</ele>
        <time>2022-04-18T08:02:04Z</time>
      </trkpt>
      <trkpt lat="45.44245" lon="4.12325">
        <ele>647.59</ele>
        <time>2022-04-18T08:02:33Z</time>
      </trkpt>
      <trkpt lat="45.44216" lon="4.12283">
        <ele>648.55</ele>
        <time>2022-04-18T08:03:01Z</time>
      </trkpt>
      <trkpt lat="45.44202" lon="4.12232">
        <ele>648.07</ele>
        <time>2022-04-18T08:03:26Z</time>
      </trkpt>
      <trkpt lat="45.44212" lon="4.12178">
        <ele>648.55</ele>
        <time>2022-04-18T08:03:51Z</time>
      </trkpt>
      <trkpt lat="45.44225" lon="4.12116">
        <ele>647.59</ele>
        <time>2022-04-18T08:04:20Z</time>
      </trkpt>
      <trkpt lat="45.44223" lon="4.12068">
        <ele>647.59</ele>
        <time>2022-04-18T08:04:43Z</time>
      </trkpt>
      <trkpt lat="45.44214" lon="4.12022">
        <ele>646.62</ele>
        <time>2022-04-18T08:05:06Z</time>
      </trkpt>
      <trkpt lat="45.44202" lon="4.11982">
        <ele>646.14</ele>
        <time>2022-04-18T08:05:27Z</time>
      </trkpt>
      <trkpt lat="45.4419" lon="4.11945">
        <ele>647.1</ele>
        <time>2022-04-18T08:05:47Z</time>
      </trkpt>
      <trkpt lat="45.44176" lon="4.11899">
        <ele>647.1</ele>
        <time>2022-04-18T08:06:11Z</time>
      </trkpt>
      <trkpt lat="45.44167" lon="4.11866">
        <ele>648.55</ele>
        <time>2022-04-18T08:06:33Z</time>
      </trkpt>
      <trkpt lat="45.44168" lon="4.11866">
        <ele>648.55</ele>
        <time>2022-04-18T08:06:34Z</time>
      </trkpt>
      <trkpt lat="45.44193" lon="4.11851">
        <ele>646.62</ele>
        <time>2022-04-18T08:06:54Z</time>
      </trkpt>
      <trkpt lat="45.44215" lon="4.11841">
        <ele>646.14</ele>
        <time>2022-04-18T08:07:12Z</time>
      </trkpt>
      <trkpt lat="45.44238" lon="4.11829">
        <ele>647.1</ele>
        <time>2022-04-18T08:07:33Z</time>
      </trkpt>
      <trkpt lat="45.44239" lon="4.11827">
        <ele>647.1</ele>
        <time>2022-04-18T08:07:35Z</time>
      </trkpt>
      <trkpt lat="45.44238" lon="4.11785">
        <ele>649.51</ele>
        <time>2022-04-18T08:07:54Z</time>
      </trkpt>
      <trkpt lat="45.44236" lon="4.11741">
        <ele>652.39</ele>
        <time>2022-04-18T08:08:14Z</time>
      </trkpt>
      <trkpt lat="45.44239" lon="4.11704">
        <ele>655.76</ele>
        <time>2022-04-18T08:08:33Z</time>
      </trkpt>
      <trkpt lat="45.44247" lon="4.11667">
        <ele>655.76</ele>
        <time>2022-04-18T08:08:54Z</time>
      </trkpt>
      <trkpt lat="45.44263" lon="4.11619">
        <ele>658.64</ele>
        <time>2022-04-18T08:09:19Z</time>
      </trkpt>
      <trkpt lat="45.44279" lon="4.11567">
        <ele>661.04</ele>
        <time>2022-04-18T08:09:47Z</time>
      </trkpt>
      <trkpt lat="45.44286" lon="4.1154">
        <ele>661.04</ele>
        <time>2022-04-18T08:10:01Z</time>
      </trkpt>
      <trkpt lat="45.44289" lon="4.11512">
        <ele>659.12</ele>
        <time>2022-04-18T08:10:17Z</time>
      </trkpt>
      <trkpt lat="45.44292" lon="4.11481">
        <ele>657.68</ele>
        <time>2022-04-18T08:10:35Z</time>
      </trkpt>
      <trkpt lat="45.44292" lon="4.11446">
        <ele>656.72</ele>
        <time>2022-04-18T08:10:52Z</time>
      </trkpt>
      <trkpt lat="45.44299" lon="4.11416">
        <ele>657.2</ele>
        <time>2022-04-18T08:11:09Z</time>
      </trkpt>
      <trkpt lat="45.44321" lon="4.11409">
        <ele>656.24</ele>
        <time>2022-04-18T08:11:27Z</time>
      </trkpt>
      <trkpt lat="45.44344" lon="4.11391">
        <ele>658.16</ele>
        <time>2022-04-18T08:11:46Z</time>
      </trkpt>
      <trkpt lat="45.44363" lon="4.11367">
        <ele>658.64</ele>
        <time>2022-04-18T08:12:03Z</time>
      </trkpt>
      <trkpt lat="45.44391" lon="4.11362">
        <ele>661.52</ele>
        <time>2022-04-18T08:12:22Z</time>
      </trkpt>
      <trkpt lat="45.44424" lon="4.1135">
        <ele>663.93</ele>
        <time>2022-04-18T08:12:46Z</time>
      </trkpt>
      <trkpt lat="45.44463" lon="4.11341">
        <ele>664.89</ele>
        <time>2022-04-18T08:13:12Z</time>
      </trkpt>
      <trkpt lat="45.44493" lon="4.11344">
        <ele>666.81</ele>
        <time>2022-04-18T08:13:28Z</time>
      </trkpt>
      <trkpt lat="45.44505" lon="4.11334">
        <ele>666.81</ele>
        <time>2022-04-18T08:13:45Z</time>
      </trkpt>
      <trkpt lat="45.44528" lon="4.11317">
        <ele>668.73</ele>
        <time>2022-04-18T08:14:06Z</time>
      </trkpt>
      <trkpt lat="45.44553" lon="4.11299">
        <ele>668.73</ele>
        <time>2022-04-18T08:14:27Z</time>
      </trkpt>
      <trkpt lat="45.44583" lon="4.11288">
        <ele>666.33</ele>
        <time>2022-04-18T08:14:49Z</time>
      </trkpt>
      <trkpt lat="45.44607" lon="4.11278">
        <ele>664.41</ele>
        <time>2022-04-18T08:15:08Z</time>
      </trkpt>
      <trkpt lat="45.44632" lon="4.11253">
        <ele>662.01</ele>
        <time>2022-04-18T08:15:29Z</time>
      </trkpt>
      <trkpt lat="45.44657" lon="4.11229">
        <ele>660.56</ele>
        <time>2022-04-18T08:15:51Z</time>
      </trkpt>
      <trkpt lat="45.44681" lon="4.11204">
        <ele>659.6</ele>
        <time>2022-04-18T08:16:12Z</time>
      </trkpt>
      <trkpt lat="45.44706" lon="4.11178">
        <ele>658.64</ele>
        <time>2022-04-18T08:16:34Z</time>
      </trkpt>
      <trkpt lat="45.44715" lon="4.11168">
        <ele>658.16</ele>
        <time>2022-04-18T08:16:44Z</time>
      </trkpt>
      <trkpt lat="45.44715" lon="4.11166">
        <ele>658.16</ele>
        <time>2022-04-18T08:16:45Z</time>
      </trkpt>
      <trkpt lat="45.44715" lon="4.11164">
        <ele>658.16</ele>
        <time>2022-04-18T08:16:46Z</time>
      </trkpt>
      <trkpt lat="45.44714" lon="4.11162">
        <ele>658.64</ele>
        <time>2022-04-18T08:16:47Z</time>
      </trkpt>
      <trkpt lat="45.44713" lon="4.11159">
        <ele>658.64</ele>
        <time>2022-04-18T08:16:48Z</time>
      </trkpt>
      <trkpt lat="45.44713" lon="4.11158">
        <ele>658.16</ele>
        <time>2022-04-18T08:16:49Z</time>
      </trkpt>
      <trkpt lat="45.44712" lon="4.11156">
        <ele>658.16</ele>
        <time>2022-04-18T08:16:50Z</time>
      </trkpt>
      <trkpt lat="45.44694" lon="4.11117">
        <ele>659.12</ele>
        <time>2022-04-18T08:17:11Z</time>
      </trkpt>
      <trkpt lat="45.44671" lon="4.1107">
        <ele>660.56</ele>
        <time>2022-04-18T08:17:39Z</time>
      </trkpt>
      <trkpt lat="45.44653" lon="4.11033">
        <ele>662.01</ele>
        <time>2022-04-18T08:18:00Z</time>
      </trkpt>
      <trkpt lat="45.44633" lon="4.10985">
        <ele>663.45</ele>
        <time>2022-04-18T08:18:26Z</time>
      </trkpt>
      <trkpt lat="45.44622" lon="4.10947">
        <ele>667.29</ele>
        <time>2022-04-18T08:18:46Z</time>
      </trkpt>
      <trkpt lat="45.44625" lon="4.10933">
        <ele>668.25</ele>
        <time>2022-04-18T08:18:55Z</time>
      </trkpt>
      <trkpt lat="45.44632" lon="4.10907">
        <ele>665.85</ele>
        <time>2022-04-18T08:19:12Z</time>
      </trkpt>
      <trkpt lat="45.44639" lon="4.10875">
        <ele>663.45</ele>
        <time>2022-04-18T08:19:28Z</time>
      </trkpt>
      <trkpt lat="45.44644" lon="4.10847">
        <ele>659.12</ele>
        <time>2022-04-18T08:19:45Z</time>
      </trkpt>
      <trkpt lat="45.44642" lon="4.1083">
        <ele>650.95</ele>
        <time>2022-04-18T08:19:59Z</time>
      </trkpt>
      <trkpt lat="45.44647" lon="4.10798">
        <ele>650.47</ele>
        <time>2022-04-18T08:20:12Z</time>
      </trkpt>
      <trkpt lat="45.44652" lon="4.10772">
        <ele>644.22</ele>
        <time>2022-04-18T08:20:27Z</time>
      </trkpt>
      <trkpt lat="45.44666" lon="4.10727">
        <ele>647.1</ele>
        <time>2022-04-18T08:20:45Z</time>
      </trkpt>
      <trkpt lat="45.44682" lon="4.10695">
        <ele>649.03</ele>
        <time>2022-04-18T08:21:04Z</time>
      </trkpt>
      <trkpt lat="45.44685" lon="4.10684">
        <ele>650.47</ele>
        <time>2022-04-18T08:21:10Z</time>
      </trkpt>
      <trkpt lat="45.44695" lon="4.10652">
        <ele>653.83</ele>
        <time>2022-04-18T08:21:27Z</time>
      </trkpt>
      <trkpt lat="45.44706" lon="4.10619">
        <ele>652.87</ele>
        <time>2022-04-18T08:21:46Z</time>
      </trkpt>
      <trkpt lat="45.44723" lon="4.10585">
        <ele>658.16</ele>
        <time>2022-04-18T08:22:04Z</time>
      </trkpt>
      <trkpt lat="45.44762" lon="4.10558">
        <ele>675.94</ele>
        <time>2022-04-18T08:22:23Z</time>
      </trkpt>
      <trkpt lat="45.44789" lon="4.10536">
        <ele>682.67</ele>
        <time>2022-04-18T08:22:44Z</time>
      </trkpt>
      <trkpt lat="45.4481" lon="4.10518">
        <ele>683.63</ele>
        <time>2022-04-18T08:23:02Z</time>
      </trkpt>
      <trkpt lat="45.44838" lon="4.10501">
        <ele>684.6</ele>
        <time>2022-04-18T08:23:23Z</time>
      </trkpt>
      <trkpt lat="45.44859" lon="4.10469">
        <ele>684.6</ele>
        <time>2022-04-18T08:23:45Z</time>
      </trkpt>
      <trkpt lat="45.4487" lon="4.10429">
        <ele>681.23</ele>
        <time>2022-04-18T08:24:06Z</time>
      </trkpt>
      <trkpt lat="45.44876" lon="4.1039">
        <ele>680.75</ele>
        <time>2022-04-18T08:24:26Z</time>
      </trkpt>
      <trkpt lat="45.44881" lon="4.10381">
        <ele>679.79</ele>
        <time>2022-04-18T08:24:31Z</time>
      </trkpt>
      <trkpt lat="45.44882" lon="4.1038">
        <ele>679.79</ele>
        <time>2022-04-18T08:24:32Z</time>
      </trkpt>
      <trkpt lat="45.44889" lon="4.10371">
        <ele>678.35</ele>
        <time>2022-04-18T08:24:39Z</time>
      </trkpt>
      <trkpt lat="45.44918" lon="4.10343">
        <ele>680.75</ele>
        <time>2022-04-18T08:25:00Z</time>
      </trkpt>
      <trkpt lat="45.4494" lon="4.10315">
        <ele>682.67</ele>
        <time>2022-04-18T08:25:21Z</time>
      </trkpt>
      <trkpt lat="45.44954" lon="4.10282">
        <ele>681.23</ele>
        <time>2022-04-18T08:25:41Z</time>
      </trkpt>
      <trkpt lat="45.4496" lon="4.10242">
        <ele>676.91</ele>
        <time>2022-04-18T08:26:02Z</time>
      </trkpt>
      <trkpt lat="45.44954" lon="4.10212">
        <ele>673.06</ele>
        <time>2022-04-18T08:26:19Z</time>
      </trkpt>
      <trkpt lat="45.44935" lon="4.10186">
        <ele>672.58</ele>
        <time>2022-04-18T08:26:37Z</time>
      </trkpt>
      <trkpt lat="45.44914" lon="4.10158">
        <ele>669.7</ele>
        <time>2022-04-18T08:26:56Z</time>
      </trkpt>
      <trkpt lat="45.44893" lon="4.10128">
        <ele>666.81</ele>
        <time>2022-04-18T08:27:13Z</time>
      </trkpt>
      <trkpt lat="45.44873" lon="4.10106">
        <ele>666.81</ele>
        <time>2022-04-18T08:27:30Z</time>
      </trkpt>
      <trkpt lat="45.44868" lon="4.10084">
        <ele>667.29</ele>
        <time>2022-04-18T08:27:44Z</time>
      </trkpt>
      <trkpt lat="45.44868" lon="4.10081">
        <ele>667.29</ele>
        <time>2022-04-18T08:27:46Z</time>
      </trkpt>
      <trkpt lat="45.4488" lon="4.1004">
        <ele>667.29</ele>
        <time>2022-04-18T08:28:04Z</time>
      </trkpt>
      <trkpt lat="45.44911" lon="4.10034">
        <ele>665.85</ele>
        <time>2022-04-18T08:28:25Z</time>
      </trkpt>
      <trkpt lat="45.44939" lon="4.10029">
        <ele>663.45</ele>
        <time>2022-04-18T08:28:44Z</time>
      </trkpt>
      <trkpt lat="45.44969" lon="4.10024">
        <ele>662.01</ele>
        <time>2022-04-18T08:29:04Z</time>
      </trkpt>
      <trkpt lat="45.45013" lon="4.10009">
        <ele>664.89</ele>
        <time>2022-04-18T08:29:28Z</time>
      </trkpt>
      <trkpt lat="45.4504" lon="4.10004">
        <ele>664.89</ele>
        <time>2022-04-18T08:29:47Z</time>
      </trkpt>
      <trkpt lat="45.45062" lon="4.09999">
        <ele>665.37</ele>
        <time>2022-04-18T08:30:06Z</time>
      </trkpt>
      <trkpt lat="45.45079" lon="4.09995">
        <ele>665.37</ele>
        <time>2022-04-18T08:30:22Z</time>
      </trkpt>
      <trkpt lat="45.45091" lon="4.0999">
        <ele>668.25</ele>
        <time>2022-04-18T08:30:35Z</time>
      </trkpt>
      <trkpt lat="45.45105" lon="4.09997">
        <ele>663.93</ele>
        <time>2022-04-18T08:30:51Z</time>
      </trkpt>
      <trkpt lat="45.45123" lon="4.10005">
        <ele>662.97</ele>
        <time>2022-04-18T08:31:06Z</time>
      </trkpt>
      <trkpt lat="45.45125" lon="4.10005">
        <ele>662.97</ele>
        <time>2022-04-18T08:31:07Z</time>
      </trkpt>
      <trkpt lat="45.45142" lon="4.09978">
        <ele>660.08</ele>
        <time>2022-04-18T08:31:24Z</time>
      </trkpt>
      <trkpt lat="45.45142" lon="4.09976">
        <ele>659.6</ele>
        <time>2022-04-18T08:31:25Z</time>
      </trkpt>
      <trkpt lat="45.4514" lon="4.09957">
        <ele>660.08</ele>
        <time>2022-04-18T08:31:33Z</time>
      </trkpt>
      <trkpt lat="45.45132" lon="4.09927">
        <ele>663.45</ele>
        <time>2022-04-18T08:31:47Z</time>
      </trkpt>
      <trkpt lat="45.45131" lon="4.09917">
        <ele>664.41</ele>
        <time>2022-04-18T08:31:52Z</time>
      </trkpt>
      <trkpt lat="45.45131" lon="4.09914">
        <ele>664.41</ele>
        <time>2022-04-18T08:31:53Z</time>
      </trkpt>
      <trkpt lat="45.45124" lon="4.09869">
        <ele>666.81</ele>
        <time>2022-04-18T08:32:14Z</time>
      </trkpt>
      <trkpt lat="45.45115" lon="4.09828">
        <ele>666.33</ele>
        <time>2022-04-18T08:32:34Z</time>
      </trkpt>
      <trkpt lat="45.45103" lon="4.09793">
        <ele>665.85</ele>
        <time>2022-04-18T08:32:52Z</time>
      </trkpt>
      <trkpt lat="45.45089" lon="4.0976">
        <ele>667.29</ele>
        <time>2022-04-18T08:33:11Z</time>
      </trkpt>
      <trkpt lat="45.45072" lon="4.09729">
        <ele>666.33</ele>
        <time>2022-04-18T08:33:28Z</time>
      </trkpt>
      <trkpt lat="45.45068" lon="4.09708">
        <ele>666.81</ele>
        <time>2022-04-18T08:33:42Z</time>
      </trkpt>
      <trkpt lat="45.45069" lon="4.09693">
        <ele>665.85</ele>
        <time>2022-04-18T08:33:50Z</time>
      </trkpt>
      <trkpt lat="45.45078" lon="4.09655">
        <ele>661.04</ele>
        <time>2022-04-18T08:34:12Z</time>
      </trkpt>
      <trkpt lat="45.45085" lon="4.09624">
        <ele>654.8</ele>
        <time>2022-04-18T08:34:30Z</time>
      </trkpt>
      <trkpt lat="45.45088" lon="4.09587">
        <ele>659.12</ele>
        <time>2022-04-18T08:34:47Z</time>
      </trkpt>
      <trkpt lat="45.45094" lon="4.09563">
        <ele>660.08</ele>
        <time>2022-04-18T08:34:59Z</time>
      </trkpt>
      <trkpt lat="45.45087" lon="4.09538">
        <ele>659.6</ele>
        <time>2022-04-18T08:35:13Z</time>
      </trkpt>
      <trkpt lat="45.45079" lon="4.09512">
        <ele>660.56</ele>
        <time>2022-04-18T08:35:29Z</time>
      </trkpt>
      <trkpt lat="45.45064" lon="4.09495">
        <ele>654.8</ele>
        <time>2022-04-18T08:35:45Z</time>
      </trkpt>
      <trkpt lat="45.45054" lon="4.09475">
        <ele>654.31</ele>
        <time>2022-04-18T08:36:01Z</time>
      </trkpt>
      <trkpt lat="45.45043" lon="4.09441">
        <ele>669.22</ele>
        <time>2022-04-18T08:36:19Z</time>
      </trkpt>
      <trkpt lat="45.45033" lon="4.09423">
        <ele>678.35</ele>
        <time>2022-04-18T08:36:29Z</time>
      </trkpt>
      <trkpt lat="45.45015" lon="4.09411">
        <ele>684.6</ele>
        <time>2022-04-18T08:36:43Z</time>
      </trkpt>
      <trkpt lat="45.45001" lon="4.09404">
        <ele>685.08</ele>
        <time>2022-04-18T08:36:57Z</time>
      </trkpt>
      <trkpt lat="45.44985" lon="4.09381">
        <ele>687.48</ele>
        <time>2022-04-18T08:37:12Z</time>
      </trkpt>
      <trkpt lat="45.44987" lon="4.09346">
        <ele>698.05</ele>
        <time>2022-04-18T08:37:29Z</time>
      </trkpt>
      <trkpt lat="45.44989" lon="4.09316">
        <ele>701.9</ele>
        <time>2022-04-18T08:37:44Z</time>
      </trkpt>
      <trkpt lat="45.44982" lon="4.09287">
        <ele>700.94</ele>
        <time>2022-04-18T08:38:00Z</time>
      </trkpt>
      <trkpt lat="45.44972" lon="4.09262">
        <ele>697.57</ele>
        <time>2022-04-18T08:38:16Z</time>
      </trkpt>
      <trkpt lat="45.44963" lon="4.09235">
        <ele>692.77</ele>
        <time>2022-04-18T08:38:34Z</time>
      </trkpt>
      <trkpt lat="45.44954" lon="4.09204">
        <ele>690.84</ele>
        <time>2022-04-18T08:38:52Z</time>
      </trkpt>
      <trkpt lat="45.44943" lon="4.09182">
        <ele>690.36</ele>
        <time>2022-04-18T08:39:10Z</time>
      </trkpt>
      <trkpt lat="45.44941" lon="4.09176">
        <ele>693.25</ele>
        <time>2022-04-18T08:39:41Z</time>
      </trkpt>
      <trkpt lat="45.44935" lon="4.09165">
        <ele>697.57</ele>
        <time>2022-04-18T08:40:09Z</time>
      </trkpt>
      <trkpt lat="45.44928" lon="4.09142">
        <ele>699.5</ele>
        <time>2022-04-18T08:40:26Z</time>
      </trkpt>
      <trkpt lat="45.4492" lon="4.09121">
        <ele>694.69</ele>
        <time>2022-04-18T08:40:41Z</time>
      </trkpt>
      <trkpt lat="45.44929" lon="4.09087">
        <ele>694.21</ele>
        <time>2022-04-18T08:40:57Z</time>
      </trkpt>
      <trkpt lat="45.44935" lon="4.09063">
        <ele>691.81</ele>
        <time>2022-04-18T08:41:13Z</time>
      </trkpt>
      <trkpt lat="45.44948" lon="4.09031">
        <ele>695.17</ele>
        <time>2022-04-18T08:41:29Z</time>
      </trkpt>
      <trkpt lat="45.44954" lon="4.08993">
        <ele>697.57</ele>
        <time>2022-04-18T08:41:48Z</time>
      </trkpt>
      <trkpt lat="45.44956" lon="4.08956">
        <ele>699.5</ele>
        <time>2022-04-18T08:42:08Z</time>
      </trkpt>
      <trkpt lat="45.4495" lon="4.08934">
        <ele>696.13</ele>
        <time>2022-04-18T08:42:24Z</time>
      </trkpt>
      <trkpt lat="45.4494" lon="4.08906">
        <ele>696.61</ele>
        <time>2022-04-18T08:42:41Z</time>
      </trkpt>
      <trkpt lat="45.44936" lon="4.0887">
        <ele>701.9</ele>
        <time>2022-04-18T08:42:59Z</time>
      </trkpt>
      <trkpt lat="45.44935" lon="4.08825">
        <ele>706.71</ele>
        <time>2022-04-18T08:43:17Z</time>
      </trkpt>
      <trkpt lat="45.44939" lon="4.08807">
        <ele>699.5</ele>
        <time>2022-04-18T08:43:31Z</time>
      </trkpt>
      <trkpt lat="45.4495" lon="4.08787">
        <ele>692.29</ele>
        <time>2022-04-18T08:43:47Z</time>
      </trkpt>
      <trkpt lat="45.44955" lon="4.0878">
        <ele>692.29</ele>
        <time>2022-04-18T08:43:51Z</time>
      </trkpt>
      <trkpt lat="45.4497" lon="4.08754">
        <ele>691.33</ele>
        <time>2022-04-18T08:44:07Z</time>
      </trkpt>
      <trkpt lat="45.44976" lon="4.08725">
        <ele>689.88</ele>
        <time>2022-04-18T08:44:23Z</time>
      </trkpt>
      <trkpt lat="45.4498" lon="4.08693">
        <ele>688.92</ele>
        <time>2022-04-18T08:44:38Z</time>
      </trkpt>
      <trkpt lat="45.44979" lon="4.08677">
        <ele>685.08</ele>
        <time>2022-04-18T08:44:47Z</time>
      </trkpt>
      <trkpt lat="45.4498" lon="4.0865">
        <ele>678.35</ele>
        <time>2022-04-18T08:45:01Z</time>
      </trkpt>
      <trkpt lat="45.44982" lon="4.08642">
        <ele>678.35</ele>
        <time>2022-04-18T08:45:04Z</time>
      </trkpt>
      <trkpt lat="45.4498" lon="4.08613">
        <ele>674.5</ele>
        <time>2022-04-18T08:45:17Z</time>
      </trkpt>
      <trkpt lat="45.4497" lon="4.08586">
        <ele>669.22</ele>
        <time>2022-04-18T08:45:30Z</time>
      </trkpt>
      <trkpt lat="45.44964" lon="4.08565">
        <ele>663.45</ele>
        <time>2022-04-18T08:45:40Z</time>
      </trkpt>
      <trkpt lat="45.44963" lon="4.0855">
        <ele>659.12</ele>
        <time>2022-04-18T08:45:48Z</time>
      </trkpt>
      <trkpt lat="45.44985" lon="4.08523">
        <ele>671.14</ele>
        <time>2022-04-18T08:46:03Z</time>
      </trkpt>
      <trkpt lat="45.44985" lon="4.08511">
        <ele>674.5</ele>
        <time>2022-04-18T08:46:07Z</time>
      </trkpt>
      <trkpt lat="45.44979" lon="4.08475">
        <ele>683.63</ele>
        <time>2022-04-18T08:46:23Z</time>
      </trkpt>
      <trkpt lat="45.44973" lon="4.08437">
        <ele>687.48</ele>
        <time>2022-04-18T08:46:39Z</time>
      </trkpt>
      <trkpt lat="45.44967" lon="4.08414">
        <ele>688.44</ele>
        <time>2022-04-18T08:46:56Z</time>
      </trkpt>
      <trkpt lat="45.44953" lon="4.08384">
        <ele>687.96</ele>
        <time>2022-04-18T08:47:15Z</time>
      </trkpt>
      <trkpt lat="45.44942" lon="4.08364">
        <ele>687</ele>
        <time>2022-04-18T08:47:29Z</time>
      </trkpt>
      <trkpt lat="45.44931" lon="4.08341">
        <ele>684.12</ele>
        <time>2022-04-18T08:47:46Z</time>
      </trkpt>
      <trkpt lat="45.44923" lon="4.08322">
        <ele>683.15</ele>
        <time>2022-04-18T08:47:53Z</time>
      </trkpt>
      <trkpt lat="45.44912" lon="4.08299">
        <ele>683.15</ele>
        <time>2022-04-18T08:48:06Z</time>
      </trkpt>
      <trkpt lat="45.44899" lon="4.08263">
        <ele>685.08</ele>
        <time>2022-04-18T08:48:22Z</time>
      </trkpt>
      <trkpt lat="45.44892" lon="4.0822">
        <ele>690.84</ele>
        <time>2022-04-18T08:48:40Z</time>
      </trkpt>
      <trkpt lat="45.4489" lon="4.08198">
        <ele>690.84</ele>
        <time>2022-04-18T08:48:52Z</time>
      </trkpt>
      <trkpt lat="45.4488" lon="4.0816">
        <ele>691.81</ele>
        <time>2022-04-18T08:49:11Z</time>
      </trkpt>
      <trkpt lat="45.44863" lon="4.08137">
        <ele>692.29</ele>
        <time>2022-04-18T08:49:29Z</time>
      </trkpt>
      <trkpt lat="45.4485" lon="4.08107">
        <ele>691.33</ele>
        <time>2022-04-18T08:49:45Z</time>
      </trkpt>
      <trkpt lat="45.44843" lon="4.08091">
        <ele>691.81</ele>
        <time>2022-04-18T08:49:53Z</time>
      </trkpt>
      <trkpt lat="45.44838" lon="4.0806">
        <ele>694.21</ele>
        <time>2022-04-18T08:50:09Z</time>
      </trkpt>
      <trkpt lat="45.44838" lon="4.0804">
        <ele>691.33</ele>
        <time>2022-04-18T08:50:21Z</time>
      </trkpt>
      <trkpt lat="45.44816" lon="4.08013">
        <ele>696.61</ele>
        <time>2022-04-18T08:50:38Z</time>
      </trkpt>
      <trkpt lat="45.448" lon="4.07996">
        <ele>697.57</ele>
        <time>2022-04-18T08:50:55Z</time>
      </trkpt>
      <trkpt lat="45.44774" lon="4.07985">
        <ele>701.42</ele>
        <time>2022-04-18T08:51:12Z</time>
      </trkpt>
      <trkpt lat="45.44754" lon="4.07983">
        <ele>705.75</ele>
        <time>2022-04-18T08:51:25Z</time>
      </trkpt>
      <trkpt lat="45.44736" lon="4.07974">
        <ele>706.71</ele>
        <time>2022-04-18T08:51:42Z</time>
      </trkpt>
      <trkpt lat="45.44717" lon="4.0797">
        <ele>710.07</ele>
        <time>2022-04-18T08:51:59Z</time>
      </trkpt>
      <trkpt lat="45.44696" lon="4.07962">
        <ele>714.88</ele>
        <time>2022-04-18T08:52:14Z</time>
      </trkpt>
      <trkpt lat="45.44677" lon="4.07955">
        <ele>718.72</ele>
        <time>2022-04-18T08:52:30Z</time>
      </trkpt>
      <trkpt lat="45.44653" lon="4.07942">
        <ele>723.53</ele>
        <time>2022-04-18T08:52:46Z</time>
      </trkpt>
      <trkpt lat="45.44625" lon="4.0794">
        <ele>727.37</ele>
        <time>2022-04-18T08:53:05Z</time>
      </trkpt>
      <trkpt lat="45.44593" lon="4.07928">
        <ele>729.78</ele>
        <time>2022-04-18T08:53:27Z</time>
      </trkpt>
      <trkpt lat="45.44569" lon="4.07904">
        <ele>734.58</ele>
        <time>2022-04-18T08:53:45Z</time>
      </trkpt>
      <trkpt lat="45.44549" lon="4.07878">
        <ele>736.99</ele>
        <time>2022-04-18T08:54:04Z</time>
      </trkpt>
      <trkpt lat="45.44525" lon="4.07848">
        <ele>738.91</ele>
        <time>2022-04-18T08:54:26Z</time>
      </trkpt>
      <trkpt lat="45.44508" lon="4.07839">
        <ele>739.87</ele>
        <time>2022-04-18T08:54:40Z</time>
      </trkpt>
      <trkpt lat="45.44483" lon="4.07833">
        <ele>741.79</ele>
        <time>2022-04-18T08:54:57Z</time>
      </trkpt>
      <trkpt lat="45.4446" lon="4.07825">
        <ele>738.91</ele>
        <time>2022-04-18T08:55:15Z</time>
      </trkpt>
      <trkpt lat="45.44443" lon="4.07809">
        <ele>736.99</ele>
        <time>2022-04-18T08:55:32Z</time>
      </trkpt>
      <trkpt lat="45.4443" lon="4.07786">
        <ele>739.39</ele>
        <time>2022-04-18T08:55:49Z</time>
      </trkpt>
      <trkpt lat="45.44423" lon="4.07763">
        <ele>741.31</ele>
        <time>2022-04-18T08:56:03Z</time>
      </trkpt>
      <trkpt lat="45.44418" lon="4.07734">
        <ele>741.79</ele>
        <time>2022-04-18T08:56:18Z</time>
      </trkpt>
      <trkpt lat="45.44416" lon="4.07696">
        <ele>746.12</ele>
        <time>2022-04-18T08:56:34Z</time>
      </trkpt>
      <trkpt lat="45.44406" lon="4.07661">
        <ele>749.49</ele>
        <time>2022-04-18T08:56:49Z</time>
      </trkpt>
      <trkpt lat="45.44383" lon="4.0763">
        <ele>753.33</ele>
        <time>2022-04-18T08:57:06Z</time>
      </trkpt>
      <trkpt lat="45.44355" lon="4.07624">
        <ele>755.25</ele>
        <time>2022-04-18T08:57:26Z</time>
      </trkpt>
      <trkpt lat="45.44332" lon="4.07631">
        <ele>754.29</ele>
        <time>2022-04-18T08:57:43Z</time>
      </trkpt>
      <trkpt lat="45.44306" lon="4.07642">
        <ele>755.73</ele>
        <time>2022-04-18T08:58:01Z</time>
      </trkpt>
      <trkpt lat="45.44267" lon="4.07659">
        <ele>761.98</ele>
        <time>2022-04-18T08:58:20Z</time>
      </trkpt>
      <trkpt lat="45.44242" lon="4.0767">
        <ele>766.31</ele>
        <time>2022-04-18T08:58:37Z</time>
      </trkpt>
      <trkpt lat="45.44223" lon="4.07672">
        <ele>767.75</ele>
        <time>2022-04-18T08:58:49Z</time>
      </trkpt>
      <trkpt lat="45.4421" lon="4.07666">
        <ele>767.75</ele>
        <time>2022-04-18T08:58:58Z</time>
      </trkpt>
      <trkpt lat="45.44207" lon="4.07661">
        <ele>767.75</ele>
        <time>2022-04-18T08:59:02Z</time>
      </trkpt>
      <trkpt lat="45.44196" lon="4.07632">
        <ele>770.63</ele>
        <time>2022-04-18T08:59:17Z</time>
      </trkpt>
      <trkpt lat="45.44201" lon="4.07595">
        <ele>773.04</ele>
        <time>2022-04-18T08:59:35Z</time>
      </trkpt>
      <trkpt lat="45.44203" lon="4.07555">
        <ele>774.96</ele>
        <time>2022-04-18T08:59:53Z</time>
      </trkpt>
      <trkpt lat="45.44195" lon="4.0752">
        <ele>775.44</ele>
        <time>2022-04-18T09:00:12Z</time>
      </trkpt>
      <trkpt lat="45.44179" lon="4.07514">
        <ele>776.4</ele>
        <time>2022-04-18T09:00:25Z</time>
      </trkpt>
      <trkpt lat="45.44177" lon="4.07514">
        <ele>776.4</ele>
        <time>2022-04-18T09:00:26Z</time>
      </trkpt>
      <trkpt lat="45.44153" lon="4.07525">
        <ele>775.44</ele>
        <time>2022-04-18T09:00:41Z</time>
      </trkpt>
      <trkpt lat="45.44129" lon="4.07541">
        <ele>776.88</ele>
        <time>2022-04-18T09:00:58Z</time>
      </trkpt>
      <trkpt lat="45.44109" lon="4.07559">
        <ele>773.52</ele>
        <time>2022-04-18T09:01:13Z</time>
      </trkpt>
      <trkpt lat="45.44082" lon="4.07572">
        <ele>777.36</ele>
        <time>2022-04-18T09:01:29Z</time>
      </trkpt>
      <trkpt lat="45.44053" lon="4.07576">
        <ele>783.13</ele>
        <time>2022-04-18T09:01:43Z</time>
      </trkpt>
      <trkpt lat="45.44031" lon="4.07574">
        <ele>784.09</ele>
        <time>2022-04-18T09:01:58Z</time>
      </trkpt>
      <trkpt lat="45.44003" lon="4.07572">
        <ele>783.61</ele>
        <time>2022-04-18T09:02:14Z</time>
      </trkpt>
      <trkpt lat="45.43981" lon="4.07576">
        <ele>784.57</ele>
        <time>2022-04-18T09:02:29Z</time>
      </trkpt>
      <trkpt lat="45.43958" lon="4.07585">
        <ele>786.02</ele>
        <time>2022-04-18T09:02:43Z</time>
      </trkpt>
      <trkpt lat="45.43935" lon="4.07593">
        <ele>789.86</ele>
        <time>2022-04-18T09:02:58Z</time>
      </trkpt>
      <trkpt lat="45.4391" lon="4.07608">
        <ele>793.71</ele>
        <time>2022-04-18T09:03:13Z</time>
      </trkpt>
      <trkpt lat="45.439" lon="4.07613">
        <ele>794.67</ele>
        <time>2022-04-18T09:03:19Z</time>
      </trkpt>
      <trkpt lat="45.43898" lon="4.07614">
        <ele>794.67</ele>
        <time>2022-04-18T09:03:20Z</time>
      </trkpt>
      <trkpt lat="45.43865" lon="4.07632">
        <ele>797.07</ele>
        <time>2022-04-18T09:03:41Z</time>
      </trkpt>
      <trkpt lat="45.43845" lon="4.0764">
        <ele>799.47</ele>
        <time>2022-04-18T09:03:53Z</time>
      </trkpt>
      <trkpt lat="45.43844" lon="4.07641">
        <ele>799.95</ele>
        <time>2022-04-18T09:03:54Z</time>
      </trkpt>
      <trkpt lat="45.43842" lon="4.07642">
        <ele>799.95</ele>
        <time>2022-04-18T09:03:55Z</time>
      </trkpt>
      <trkpt lat="45.43841" lon="4.07642">
        <ele>799.95</ele>
        <time>2022-04-18T09:03:56Z</time>
      </trkpt>
      <trkpt lat="45.43839" lon="4.07643">
        <ele>799.95</ele>
        <time>2022-04-18T09:03:57Z</time>
      </trkpt>
      <trkpt lat="45.43808" lon="4.07643">
        <ele>803.8</ele>
        <time>2022-04-18T09:04:17Z</time>
      </trkpt>
      <trkpt lat="45.43788" lon="4.07629">
        <ele>805.72</ele>
        <time>2022-04-18T09:04:35Z</time>
      </trkpt>
      <trkpt lat="45.43777" lon="4.07614">
        <ele>806.2</ele>
        <time>2022-04-18T09:04:53Z</time>
      </trkpt>
      <trkpt lat="45.43776" lon="4.07616">
        <ele>808.61</ele>
        <time>2022-04-18T09:05:22Z</time>
      </trkpt>
      <trkpt lat="45.43776" lon="4.07621">
        <ele>809.57</ele>
        <time>2022-04-18T09:05:46Z</time>
      </trkpt>
      <trkpt lat="45.43776" lon="4.07622">
        <ele>811.01</ele>
        <time>2022-04-18T09:06:09Z</time>
      </trkpt>
      <trkpt lat="45.43772" lon="4.07623">
        <ele>813.41</ele>
        <time>2022-04-18T09:06:45Z</time>
      </trkpt>
      <trkpt lat="45.43772" lon="4.07621">
        <ele>812.45</ele>
        <time>2022-04-18T09:07:13Z</time>
      </trkpt>
      <trkpt lat="45.43773" lon="4.07618">
        <ele>811.49</ele>
        <time>2022-04-18T09:07:42Z</time>
      </trkpt>
      <trkpt lat="45.43761" lon="4.07602">
        <ele>811.01</ele>
        <time>2022-04-18T09:07:57Z</time>
      </trkpt>
      <trkpt lat="45.43758" lon="4.07607">
        <ele>811.01</ele>
        <time>2022-04-18T09:08:02Z</time>
      </trkpt>
      <trkpt lat="45.43758" lon="4.0761">
        <ele>811.01</ele>
        <time>2022-04-18T09:08:03Z</time>
      </trkpt>
      <trkpt lat="45.43772" lon="4.07658">
        <ele>810.05</ele>
        <time>2022-04-18T09:08:26Z</time>
      </trkpt>
      <trkpt lat="45.43776" lon="4.07723">
        <ele>809.57</ele>
        <time>2022-04-18T09:08:56Z</time>
      </trkpt>
      <trkpt lat="45.43775" lon="4.07725">
        <ele>809.57</ele>
        <time>2022-04-18T09:08:57Z</time>
      </trkpt>
      <trkpt lat="45.43774" lon="4.07726">
        <ele>809.09</ele>
        <time>2022-04-18T09:08:58Z</time>
      </trkpt>
      <trkpt lat="45.43773" lon="4.07727">
        <ele>809.09</ele>
        <time>2022-04-18T09:08:59Z</time>
      </trkpt>
      <trkpt lat="45.43769" lon="4.07728">
        <ele>809.09</ele>
        <time>2022-04-18T09:09:03Z</time>
      </trkpt>
      <trkpt lat="45.43767" lon="4.07727">
        <ele>809.09</ele>
        <time>2022-04-18T09:09:04Z</time>
      </trkpt>
      <trkpt lat="45.43766" lon="4.07727">
        <ele>809.57</ele>
        <time>2022-04-18T09:09:05Z</time>
      </trkpt>
      <trkpt lat="45.43728" lon="4.07712">
        <ele>811.97</ele>
        <time>2022-04-18T09:09:33Z</time>
      </trkpt>
      <trkpt lat="45.43709" lon="4.07707">
        <ele>811.49</ele>
        <time>2022-04-18T09:09:50Z</time>
      </trkpt>
      <trkpt lat="45.43681" lon="4.07696">
        <ele>809.09</ele>
        <time>2022-04-18T09:10:13Z</time>
      </trkpt>
      <trkpt lat="45.43654" lon="4.07691">
        <ele>808.61</ele>
        <time>2022-04-18T09:10:33Z</time>
      </trkpt>
      <trkpt lat="45.43623" lon="4.07691">
        <ele>807.64</ele>
        <time>2022-04-18T09:10:53Z</time>
      </trkpt>
      <trkpt lat="45.43591" lon="4.07689">
        <ele>809.09</ele>
        <time>2022-04-18T09:11:14Z</time>
      </trkpt>
      <trkpt lat="45.4357" lon="4.07684">
        <ele>809.09</ele>
        <time>2022-04-18T09:11:29Z</time>
      </trkpt>
      <trkpt lat="45.43543" lon="4.07687">
        <ele>809.09</ele>
        <time>2022-04-18T09:11:47Z</time>
      </trkpt>
      <trkpt lat="45.43513" lon="4.07701">
        <ele>811.01</ele>
        <time>2022-04-18T09:12:08Z</time>
      </trkpt>
      <trkpt lat="45.43492" lon="4.07713">
        <ele>811.97</ele>
        <time>2022-04-18T09:12:24Z</time>
      </trkpt>
      <trkpt lat="45.43467" lon="4.07707">
        <ele>811.97</ele>
        <time>2022-04-18T09:12:42Z</time>
      </trkpt>
      <trkpt lat="45.43434" lon="4.07692">
        <ele>811.01</ele>
        <time>2022-04-18T09:13:03Z</time>
      </trkpt>
      <trkpt lat="45.43399" lon="4.07677">
        <ele>813.89</ele>
        <time>2022-04-18T09:13:26Z</time>
      </trkpt>
      <trkpt lat="45.43374" lon="4.07667">
        <ele>816.3</ele>
        <time>2022-04-18T09:13:44Z</time>
      </trkpt>
      <trkpt lat="45.43348" lon="4.07649">
        <ele>821.1</ele>
        <time>2022-04-18T09:14:04Z</time>
      </trkpt>
      <trkpt lat="45.43322" lon="4.07623">
        <ele>824.95</ele>
        <time>2022-04-18T09:14:26Z</time>
      </trkpt>
      <trkpt lat="45.43299" lon="4.0761">
        <ele>826.39</ele>
        <time>2022-04-18T09:14:44Z</time>
      </trkpt>
      <trkpt lat="45.43276" lon="4.07604">
        <ele>827.35</ele>
        <time>2022-04-18T09:15:03Z</time>
      </trkpt>
      <trkpt lat="45.4325" lon="4.07606">
        <ele>823.51</ele>
        <time>2022-04-18T09:15:21Z</time>
      </trkpt>
      <trkpt lat="45.43226" lon="4.07622">
        <ele>820.62</ele>
        <time>2022-04-18T09:15:40Z</time>
      </trkpt>
      <trkpt lat="45.4322" lon="4.07627">
        <ele>820.62</ele>
        <time>2022-04-18T09:15:45Z</time>
      </trkpt>
      <trkpt lat="45.43219" lon="4.07626">
        <ele>820.62</ele>
        <time>2022-04-18T09:15:46Z</time>
      </trkpt>
      <trkpt lat="45.43218" lon="4.07624">
        <ele>821.1</ele>
        <time>2022-04-18T09:15:47Z</time>
      </trkpt>
      <trkpt lat="45.43198" lon="4.07599">
        <ele>820.62</ele>
        <time>2022-04-18T09:16:07Z</time>
      </trkpt>
      <trkpt lat="45.4317" lon="4.07585">
        <ele>818.7</ele>
        <time>2022-04-18T09:16:28Z</time>
      </trkpt>
      <trkpt lat="45.43152" lon="4.07569">
        <ele>818.7</ele>
        <time>2022-04-18T09:16:43Z</time>
      </trkpt>
      <trkpt lat="45.43147" lon="4.07553">
        <ele>818.22</ele>
        <time>2022-04-18T09:16:52Z</time>
      </trkpt>
      <trkpt lat="45.43154" lon="4.07527">
        <ele>821.1</ele>
        <time>2022-04-18T09:17:07Z</time>
      </trkpt>
      <trkpt lat="45.43153" lon="4.07525">
        <ele>820.62</ele>
        <time>2022-04-18T09:17:08Z</time>
      </trkpt>
      <trkpt lat="45.43152" lon="4.07524">
        <ele>820.62</ele>
        <time>2022-04-18T09:17:09Z</time>
      </trkpt>
      <trkpt lat="45.43127" lon="4.07507">
        <ele>818.22</ele>
        <time>2022-04-18T09:17:27Z</time>
      </trkpt>
      <trkpt lat="45.431" lon="4.07495">
        <ele>816.78</ele>
        <time>2022-04-18T09:17:47Z</time>
      </trkpt>
      <trkpt lat="45.43074" lon="4.07482">
        <ele>815.82</ele>
        <time>2022-04-18T09:18:06Z</time>
      </trkpt>
      <trkpt lat="45.43059" lon="4.07497">
        <ele>812.93</ele>
        <time>2022-04-18T09:18:21Z</time>
      </trkpt>
      <trkpt lat="45.43058" lon="4.07499">
        <ele>812.93</ele>
        <time>2022-04-18T09:18:22Z</time>
      </trkpt>
      <trkpt lat="45.43057" lon="4.07501">
        <ele>812.93</ele>
        <time>2022-04-18T09:18:23Z</time>
      </trkpt>
      <trkpt lat="45.43039" lon="4.07531">
        <ele>809.09</ele>
        <time>2022-04-18T09:18:44Z</time>
      </trkpt>
      <trkpt lat="45.43035" lon="4.07535">
        <ele>808.61</ele>
        <time>2022-04-18T09:18:48Z</time>
      </trkpt>
      <trkpt lat="45.43021" lon="4.07541">
        <ele>807.64</ele>
        <time>2022-04-18T09:19:00Z</time>
      </trkpt>
      <trkpt lat="45.4302" lon="4.0754">
        <ele>807.16</ele>
        <time>2022-04-18T09:19:01Z</time>
      </trkpt>
      <trkpt lat="45.43004" lon="4.07538">
        <ele>805.24</ele>
        <time>2022-04-18T09:19:09Z</time>
      </trkpt>
      <trkpt lat="45.43002" lon="4.07538">
        <ele>804.76</ele>
        <time>2022-04-18T09:19:10Z</time>
      </trkpt>
      <trkpt lat="45.43" lon="4.07538">
        <ele>804.76</ele>
        <time>2022-04-18T09:19:11Z</time>
      </trkpt>
      <trkpt lat="45.4299" lon="4.0755">
        <ele>804.28</ele>
        <time>2022-04-18T09:19:22Z</time>
      </trkpt>
      <trkpt lat="45.42986" lon="4.07594">
        <ele>804.28</ele>
        <time>2022-04-18T09:19:42Z</time>
      </trkpt>
      <trkpt lat="45.4299" lon="4.07631">
        <ele>802.84</ele>
        <time>2022-04-18T09:19:59Z</time>
      </trkpt>
      <trkpt lat="45.42995" lon="4.07685">
        <ele>800.92</ele>
        <time>2022-04-18T09:20:21Z</time>
      </trkpt>
      <trkpt lat="45.43" lon="4.07728">
        <ele>797.55</ele>
        <time>2022-04-18T09:20:40Z</time>
      </trkpt>
      <trkpt lat="45.43015" lon="4.07769">
        <ele>795.15</ele>
        <time>2022-04-18T09:21:01Z</time>
      </trkpt>
      <trkpt lat="45.43037" lon="4.078">
        <ele>792.74</ele>
        <time>2022-04-18T09:21:21Z</time>
      </trkpt>
      <trkpt lat="45.43059" lon="4.07836">
        <ele>790.82</ele>
        <time>2022-04-18T09:21:42Z</time>
      </trkpt>
      <trkpt lat="45.43074" lon="4.07871">
        <ele>787.46</ele>
        <time>2022-04-18T09:22:00Z</time>
      </trkpt>
      <trkpt lat="45.43076" lon="4.07875">
        <ele>787.46</ele>
        <time>2022-04-18T09:22:03Z</time>
      </trkpt>
      <trkpt lat="45.43078" lon="4.07881">
        <ele>786.98</ele>
        <time>2022-04-18T09:22:06Z</time>
      </trkpt>
      <trkpt lat="45.43078" lon="4.07883">
        <ele>786.5</ele>
        <time>2022-04-18T09:22:07Z</time>
      </trkpt>
      <trkpt lat="45.4307" lon="4.07914">
        <ele>781.69</ele>
        <time>2022-04-18T09:22:23Z</time>
      </trkpt>
      <trkpt lat="45.43058" lon="4.07937">
        <ele>778.81</ele>
        <time>2022-04-18T09:22:38Z</time>
      </trkpt>
      <trkpt lat="45.43054" lon="4.07962">
        <ele>778.81</ele>
        <time>2022-04-18T09:22:52Z</time>
      </trkpt>
      <trkpt lat="45.43051" lon="4.07986">
        <ele>781.69</ele>
        <time>2022-04-18T09:23:07Z</time>
      </trkpt>
      <trkpt lat="45.43045" lon="4.08028">
        <ele>786.98</ele>
        <time>2022-04-18T09:23:23Z</time>
      </trkpt>
      <trkpt lat="45.43041" lon="4.08056">
        <ele>787.94</ele>
        <time>2022-04-18T09:23:38Z</time>
      </trkpt>
      <trkpt lat="45.43035" lon="4.08087">
        <ele>794.19</ele>
        <time>2022-04-18T09:23:52Z</time>
      </trkpt>
      <trkpt lat="45.43037" lon="4.08117">
        <ele>793.22</ele>
        <time>2022-04-18T09:24:07Z</time>
      </trkpt>
      <trkpt lat="45.43033" lon="4.0816">
        <ele>799.95</ele>
        <time>2022-04-18T09:24:25Z</time>
      </trkpt>
      <trkpt lat="45.43031" lon="4.08186">
        <ele>803.32</ele>
        <time>2022-04-18T09:24:39Z</time>
      </trkpt>
      <trkpt lat="45.43019" lon="4.08231">
        <ele>802.36</ele>
        <time>2022-04-18T09:24:59Z</time>
      </trkpt>
      <trkpt lat="45.43003" lon="4.08248">
        <ele>802.36</ele>
        <time>2022-04-18T09:25:14Z</time>
      </trkpt>
      <trkpt lat="45.42974" lon="4.08265">
        <ele>804.76</ele>
        <time>2022-04-18T09:25:32Z</time>
      </trkpt>
      <trkpt lat="45.42949" lon="4.08272">
        <ele>803.8</ele>
        <time>2022-04-18T09:25:50Z</time>
      </trkpt>
      <trkpt lat="45.42923" lon="4.08269">
        <ele>805.72</ele>
        <time>2022-04-18T09:26:08Z</time>
      </trkpt>
      <trkpt lat="45.42892" lon="4.0827">
        <ele>808.13</ele>
        <time>2022-04-18T09:26:25Z</time>
      </trkpt>
      <trkpt lat="45.42866" lon="4.08275">
        <ele>809.09</ele>
        <time>2022-04-18T09:26:40Z</time>
      </trkpt>
      <trkpt lat="45.4284" lon="4.08267">
        <ele>809.57</ele>
        <time>2022-04-18T09:26:58Z</time>
      </trkpt>
      <trkpt lat="45.4283" lon="4.08268">
        <ele>809.09</ele>
        <time>2022-04-18T09:27:05Z</time>
      </trkpt>
      <trkpt lat="45.42807" lon="4.08274">
        <ele>806.68</ele>
        <time>2022-04-18T09:27:20Z</time>
      </trkpt>
      <trkpt lat="45.42788" lon="4.08278">
        <ele>805.72</ele>
        <time>2022-04-18T09:27:33Z</time>
      </trkpt>
      <trkpt lat="45.42771" lon="4.0824">
        <ele>809.57</ele>
        <time>2022-04-18T09:27:53Z</time>
      </trkpt>
      <trkpt lat="45.42765" lon="4.0819">
        <ele>808.13</ele>
        <time>2022-04-18T09:28:15Z</time>
      </trkpt>
      <trkpt lat="45.4275" lon="4.0814">
        <ele>808.13</ele>
        <time>2022-04-18T09:28:37Z</time>
      </trkpt>
      <trkpt lat="45.42734" lon="4.0809">
        <ele>806.2</ele>
        <time>2022-04-18T09:28:59Z</time>
      </trkpt>
      <trkpt lat="45.42719" lon="4.08048">
        <ele>807.16</ele>
        <time>2022-04-18T09:29:21Z</time>
      </trkpt>
      <trkpt lat="45.42712" lon="4.08016">
        <ele>805.72</ele>
        <time>2022-04-18T09:29:39Z</time>
      </trkpt>
      <trkpt lat="45.42704" lon="4.07976">
        <ele>803.8</ele>
        <time>2022-04-18T09:29:59Z</time>
      </trkpt>
      <trkpt lat="45.42695" lon="4.07931">
        <ele>803.8</ele>
        <time>2022-04-18T09:30:20Z</time>
      </trkpt>
      <trkpt lat="45.42691" lon="4.07893">
        <ele>803.32</ele>
        <time>2022-04-18T09:30:37Z</time>
      </trkpt>
      <trkpt lat="45.42693" lon="4.07885">
        <ele>803.32</ele>
        <time>2022-04-18T09:30:56Z</time>
      </trkpt>
      <trkpt lat="45.42688" lon="4.07875">
        <ele>802.84</ele>
        <time>2022-04-18T09:31:15Z</time>
      </trkpt>
      <trkpt lat="45.42688" lon="4.07867">
        <ele>803.32</ele>
        <time>2022-04-18T09:31:23Z</time>
      </trkpt>
      <trkpt lat="45.42688" lon="4.0787">
        <ele>803.8</ele>
        <time>2022-04-18T09:31:41Z</time>
      </trkpt>
      <trkpt lat="45.42692" lon="4.07874">
        <ele>802.84</ele>
        <time>2022-04-18T09:32:10Z</time>
      </trkpt>
      <trkpt lat="45.42691" lon="4.07874">
        <ele>799.95</ele>
        <time>2022-04-18T09:32:41Z</time>
      </trkpt>
      <trkpt lat="45.42691" lon="4.07874">
        <ele>800.44</ele>
        <time>2022-04-18T09:33:01Z</time>
      </trkpt>
      <trkpt lat="45.42695" lon="4.07872">
        <ele>802.36</ele>
        <time>2022-04-18T09:33:20Z</time>
      </trkpt>
      <trkpt lat="45.42693" lon="4.07875">
        <ele>802.84</ele>
        <time>2022-04-18T09:33:41Z</time>
      </trkpt>
      <trkpt lat="45.42693" lon="4.07876">
        <ele>803.32</ele>
        <time>2022-04-18T09:34:14Z</time>
      </trkpt>
      <trkpt lat="45.42693" lon="4.07877">
        <ele>803.8</ele>
        <time>2022-04-18T09:34:40Z</time>
      </trkpt>
      <trkpt lat="45.42693" lon="4.07876">
        <ele>800.92</ele>
        <time>2022-04-18T09:35:11Z</time>
      </trkpt>
      <trkpt lat="45.42694" lon="4.07875">
        <ele>800.92</ele>
        <time>2022-04-18T09:35:41Z</time>
      </trkpt>
      <trkpt lat="45.42695" lon="4.07875">
        <ele>798.99</ele>
        <time>2022-04-18T09:36:18Z</time>
      </trkpt>
      <trkpt lat="45.42696" lon="4.07876">
        <ele>799.47</ele>
        <time>2022-04-18T09:36:55Z</time>
      </trkpt>
      <trkpt lat="45.42696" lon="4.07875">
        <ele>798.03</ele>
        <time>2022-04-18T09:37:25Z</time>
      </trkpt>
      <trkpt lat="45.42696" lon="4.07875">
        <ele>804.76</ele>
        <time>2022-04-18T09:38:06Z</time>
      </trkpt>
      <trkpt lat="45.42696" lon="4.07876">
        <ele>802.84</ele>
        <time>2022-04-18T09:38:37Z</time>
      </trkpt>
      <trkpt lat="45.42698" lon="4.07877">
        <ele>802.36</ele>
        <time>2022-04-18T09:39:09Z</time>
      </trkpt>
      <trkpt lat="45.42699" lon="4.07876">
        <ele>804.76</ele>
        <time>2022-04-18T09:39:36Z</time>
      </trkpt>
      <trkpt lat="45.42692" lon="4.07877">
        <ele>804.76</ele>
        <time>2022-04-18T09:39:54Z</time>
      </trkpt>
      <trkpt lat="45.42694" lon="4.0788">
        <ele>804.76</ele>
        <time>2022-04-18T09:40:07Z</time>
      </trkpt>
      <trkpt lat="45.42693" lon="4.07884">
        <ele>803.32</ele>
        <time>2022-04-18T09:40:27Z</time>
      </trkpt>
      <trkpt lat="45.42693" lon="4.07883">
        <ele>802.84</ele>
        <time>2022-04-18T09:40:43Z</time>
      </trkpt>
      <trkpt lat="45.42691" lon="4.07882">
        <ele>801.88</ele>
        <time>2022-04-18T09:41:07Z</time>
      </trkpt>
      <trkpt lat="45.42691" lon="4.07878">
        <ele>803.8</ele>
        <time>2022-04-18T09:41:41Z</time>
      </trkpt>
      <trkpt lat="45.42692" lon="4.07878">
        <ele>802.84</ele>
        <time>2022-04-18T09:42:11Z</time>
      </trkpt>
      <trkpt lat="45.42691" lon="4.07878">
        <ele>800.92</ele>
        <time>2022-04-18T09:42:40Z</time>
      </trkpt>
      <trkpt lat="45.42692" lon="4.07874">
        <ele>799.95</ele>
        <time>2022-04-18T09:43:02Z</time>
      </trkpt>
      <trkpt lat="45.4269" lon="4.07872">
        <ele>799.95</ele>
        <time>2022-04-18T09:43:17Z</time>
      </trkpt>
      <trkpt lat="45.42692" lon="4.07875">
        <ele>800.92</ele>
        <time>2022-04-18T09:43:33Z</time>
      </trkpt>
      <trkpt lat="45.42695" lon="4.07873">
        <ele>800.44</ele>
        <time>2022-04-18T09:43:53Z</time>
      </trkpt>
      <trkpt lat="45.42695" lon="4.07873">
        <ele>801.4</ele>
        <time>2022-04-18T09:44:21Z</time>
      </trkpt>
      <trkpt lat="45.42691" lon="4.07876">
        <ele>802.84</ele>
        <time>2022-04-18T09:44:42Z</time>
      </trkpt>
      <trkpt lat="45.42689" lon="4.07876">
        <ele>801.4</ele>
        <time>2022-04-18T09:45:08Z</time>
      </trkpt>
      <trkpt lat="45.42688" lon="4.07875">
        <ele>803.32</ele>
        <time>2022-04-18T09:45:32Z</time>
      </trkpt>
      <trkpt lat="45.42691" lon="4.07874">
        <ele>804.76</ele>
        <time>2022-04-18T09:46:01Z</time>
      </trkpt>
      <trkpt lat="45.42691" lon="4.07876">
        <ele>805.24</ele>
        <time>2022-04-18T09:46:32Z</time>
      </trkpt>
      <trkpt lat="45.42697" lon="4.07882">
        <ele>803.32</ele>
        <time>2022-04-18T09:46:52Z</time>
      </trkpt>
      <trkpt lat="45.42695" lon="4.07882">
        <ele>803.32</ele>
        <time>2022-04-18T09:47:07Z</time>
      </trkpt>
      <trkpt lat="45.42692" lon="4.07882">
        <ele>802.84</ele>
        <time>2022-04-18T09:47:27Z</time>
      </trkpt>
      <trkpt lat="45.42694" lon="4.07885">
        <ele>802.36</ele>
        <time>2022-04-18T09:47:47Z</time>
      </trkpt>
      <trkpt lat="45.42694" lon="4.07882">
        <ele>802.36</ele>
        <time>2022-04-18T09:48:08Z</time>
      </trkpt>
      <trkpt lat="45.42694" lon="4.07877">
        <ele>803.8</ele>
        <time>2022-04-18T09:48:21Z</time>
      </trkpt>
      <trkpt lat="45.42693" lon="4.07839">
        <ele>801.88</ele>
        <time>2022-04-18T09:48:41Z</time>
      </trkpt>
      <trkpt lat="45.42676" lon="4.07812">
        <ele>800.92</ele>
        <time>2022-04-18T09:49:00Z</time>
      </trkpt>
      <trkpt lat="45.42648" lon="4.07782">
        <ele>799.47</ele>
        <time>2022-04-18T09:49:23Z</time>
      </trkpt>
      <trkpt lat="45.42629" lon="4.07749">
        <ele>801.4</ele>
        <time>2022-04-18T09:49:44Z</time>
      </trkpt>
      <trkpt lat="45.42612" lon="4.07709">
        <ele>803.32</ele>
        <time>2022-04-18T09:50:08Z</time>
      </trkpt>
      <trkpt lat="45.42587" lon="4.07666">
        <ele>806.68</ele>
        <time>2022-04-18T09:50:35Z</time>
      </trkpt>
      <trkpt lat="45.42554" lon="4.07623">
        <ele>808.61</ele>
        <time>2022-04-18T09:51:05Z</time>
      </trkpt>
      <trkpt lat="45.42525" lon="4.07593">
        <ele>808.61</ele>
        <time>2022-04-18T09:51:31Z</time>
      </trkpt>
      <trkpt lat="45.42494" lon="4.0756">
        <ele>807.64</ele>
        <time>2022-04-18T09:51:58Z</time>
      </trkpt>
      <trkpt lat="45.42462" lon="4.07527">
        <ele>808.13</ele>
        <time>2022-04-18T09:52:25Z</time>
      </trkpt>
      <trkpt lat="45.4243" lon="4.07495">
        <ele>808.13</ele>
        <time>2022-04-18T09:52:53Z</time>
      </trkpt>
      <trkpt lat="45.42393" lon="4.07469">
        <ele>808.13</ele>
        <time>2022-04-18T09:53:23Z</time>
      </trkpt>
      <trkpt lat="45.42361" lon="4.07443">
        <ele>808.61</ele>
        <time>2022-04-18T09:53:50Z</time>
      </trkpt>
      <trkpt lat="45.4234" lon="4.07414">
        <ele>810.05</ele>
        <time>2022-04-18T09:54:13Z</time>
      </trkpt>
      <trkpt lat="45.42318" lon="4.07399">
        <ele>808.13</ele>
        <time>2022-04-18T09:54:32Z</time>
      </trkpt>
      <trkpt lat="45.42283" lon="4.07395">
        <ele>805.72</ele>
        <time>2022-04-18T09:54:56Z</time>
      </trkpt>
      <trkpt lat="45.42254" lon="4.07391">
        <ele>802.36</ele>
        <time>2022-04-18T09:55:18Z</time>
      </trkpt>
      <trkpt lat="45.42221" lon="4.07388">
        <ele>797.55</ele>
        <time>2022-04-18T09:55:41Z</time>
      </trkpt>
      <trkpt lat="45.42195" lon="4.07381">
        <ele>794.19</ele>
        <time>2022-04-18T09:55:58Z</time>
      </trkpt>
      <trkpt lat="45.42165" lon="4.07373">
        <ele>795.63</ele>
        <time>2022-04-18T09:56:19Z</time>
      </trkpt>
      <trkpt lat="45.42133" lon="4.07358">
        <ele>798.03</ele>
        <time>2022-04-18T09:56:42Z</time>
      </trkpt>
      <trkpt lat="45.42104" lon="4.07342">
        <ele>798.99</ele>
        <time>2022-04-18T09:57:03Z</time>
      </trkpt>
      <trkpt lat="45.42078" lon="4.07339">
        <ele>798.99</ele>
        <time>2022-04-18T09:57:21Z</time>
      </trkpt>
      <trkpt lat="45.42039" lon="4.07335">
        <ele>797.07</ele>
        <time>2022-04-18T09:57:46Z</time>
      </trkpt>
      <trkpt lat="45.42" lon="4.07324">
        <ele>794.67</ele>
        <time>2022-04-18T09:58:11Z</time>
      </trkpt>
      <trkpt lat="45.41963" lon="4.07307">
        <ele>794.19</ele>
        <time>2022-04-18T09:58:36Z</time>
      </trkpt>
      <trkpt lat="45.4194" lon="4.07308">
        <ele>791.3</ele>
        <time>2022-04-18T09:58:55Z</time>
      </trkpt>
      <trkpt lat="45.4194" lon="4.07312">
        <ele>793.22</ele>
        <time>2022-04-18T09:59:17Z</time>
      </trkpt>
      <trkpt lat="45.41939" lon="4.07319">
        <ele>792.74</ele>
        <time>2022-04-18T09:59:40Z</time>
      </trkpt>
      <trkpt lat="45.4193" lon="4.07354">
        <ele>792.74</ele>
        <time>2022-04-18T09:59:59Z</time>
      </trkpt>
      <trkpt lat="45.4192" lon="4.07387">
        <ele>788.9</ele>
        <time>2022-04-18T10:00:17Z</time>
      </trkpt>
      <trkpt lat="45.41921" lon="4.07422">
        <ele>786.98</ele>
        <time>2022-04-18T10:00:36Z</time>
      </trkpt>
      <trkpt lat="45.41943" lon="4.07445">
        <ele>786.5</ele>
        <time>2022-04-18T10:00:52Z</time>
      </trkpt>
      <trkpt lat="45.41971" lon="4.07471">
        <ele>786.02</ele>
        <time>2022-04-18T10:01:13Z</time>
      </trkpt>
      <trkpt lat="45.41984" lon="4.07484">
        <ele>786.98</ele>
        <time>2022-04-18T10:01:32Z</time>
      </trkpt>
      <trkpt lat="45.41999" lon="4.07497">
        <ele>787.94</ele>
        <time>2022-04-18T10:01:53Z</time>
      </trkpt>
      <trkpt lat="45.42021" lon="4.07515">
        <ele>785.53</ele>
        <time>2022-04-18T10:02:12Z</time>
      </trkpt>
      <trkpt lat="45.42029" lon="4.0752">
        <ele>786.5</ele>
        <time>2022-04-18T10:02:32Z</time>
      </trkpt>
      <trkpt lat="45.42027" lon="4.07521">
        <ele>790.34</ele>
        <time>2022-04-18T10:03:00Z</time>
      </trkpt>
      <trkpt lat="45.42027" lon="4.07522">
        <ele>793.22</ele>
        <time>2022-04-18T10:03:37Z</time>
      </trkpt>
      <trkpt lat="45.42027" lon="4.07519">
        <ele>792.26</ele>
        <time>2022-04-18T10:04:05Z</time>
      </trkpt>
      <trkpt lat="45.42028" lon="4.07521">
        <ele>790.34</ele>
        <time>2022-04-18T10:04:36Z</time>
      </trkpt>
      <trkpt lat="45.42029" lon="4.07523">
        <ele>791.3</ele>
        <time>2022-04-18T10:05:05Z</time>
      </trkpt>
      <trkpt lat="45.42041" lon="4.07539">
        <ele>789.86</ele>
        <time>2022-04-18T10:05:20Z</time>
      </trkpt>
      <trkpt lat="45.42042" lon="4.07552">
        <ele>788.9</ele>
        <time>2022-04-18T10:05:33Z</time>
      </trkpt>
      <trkpt lat="45.42043" lon="4.07554">
        <ele>787.46</ele>
        <time>2022-04-18T10:05:57Z</time>
      </trkpt>
      <trkpt lat="45.42045" lon="4.07564">
        <ele>786.98</ele>
        <time>2022-04-18T10:06:12Z</time>
      </trkpt>
      <trkpt lat="45.42047" lon="4.07568">
        <ele>787.46</ele>
        <time>2022-04-18T10:06:27Z</time>
      </trkpt>
      <trkpt lat="45.42047" lon="4.0757">
        <ele>787.46</ele>
        <time>2022-04-18T10:06:35Z</time>
      </trkpt>
      <trkpt lat="45.4205" lon="4.07585">
        <ele>786.98</ele>
        <time>2022-04-18T10:06:44Z</time>
      </trkpt>
      <trkpt lat="45.42054" lon="4.07594">
        <ele>787.46</ele>
        <time>2022-04-18T10:07:02Z</time>
      </trkpt>
      <trkpt lat="45.42054" lon="4.07597">
        <ele>785.53</ele>
        <time>2022-04-18T10:07:20Z</time>
      </trkpt>
      <trkpt lat="45.42055" lon="4.07598">
        <ele>786.02</ele>
        <time>2022-04-18T10:07:40Z</time>
      </trkpt>
      <trkpt lat="45.42055" lon="4.07597">
        <ele>785.53</ele>
        <time>2022-04-18T10:07:46Z</time>
      </trkpt>
      <trkpt lat="45.42055" lon="4.07599">
        <ele>784.09</ele>
        <time>2022-04-18T13:19:20Z</time>
      </trkpt>
      <trkpt lat="45.42056" lon="4.07599">
        <ele>785.05</ele>
        <time>2022-04-18T13:19:43Z</time>
      </trkpt>
      <trkpt lat="45.4206" lon="4.07596">
        <ele>782.17</ele>
        <time>2022-04-18T13:20:19Z</time>
      </trkpt>
      <trkpt lat="45.42058" lon="4.07595">
        <ele>785.05</ele>
        <time>2022-04-18T13:20:45Z</time>
      </trkpt>
      <trkpt lat="45.42057" lon="4.07595">
        <ele>787.46</ele>
        <time>2022-04-18T13:21:16Z</time>
      </trkpt>
      <trkpt lat="45.42057" lon="4.07595">
        <ele>788.42</ele>
        <time>2022-04-18T13:21:40Z</time>
      </trkpt>
      <trkpt lat="45.42056" lon="4.07596">
        <ele>788.42</ele>
        <time>2022-04-18T13:22:09Z</time>
      </trkpt>
      <trkpt lat="45.42053" lon="4.07591">
        <ele>788.42</ele>
        <time>2022-04-18T13:22:13Z</time>
      </trkpt>
      <trkpt lat="45.42039" lon="4.07551">
        <ele>787.94</ele>
        <time>2022-04-18T13:22:36Z</time>
      </trkpt>
      <trkpt lat="45.42037" lon="4.07529">
        <ele>787.46</ele>
        <time>2022-04-18T13:22:49Z</time>
      </trkpt>
      <trkpt lat="45.4202" lon="4.07526">
        <ele>786.98</ele>
        <time>2022-04-18T13:23:07Z</time>
      </trkpt>
      <trkpt lat="45.41996" lon="4.07545">
        <ele>785.53</ele>
        <time>2022-04-18T13:23:29Z</time>
      </trkpt>
      <trkpt lat="45.41974" lon="4.07566">
        <ele>784.57</ele>
        <time>2022-04-18T13:23:49Z</time>
      </trkpt>
      <trkpt lat="45.41957" lon="4.07605">
        <ele>785.05</ele>
        <time>2022-04-18T13:24:12Z</time>
      </trkpt>
      <trkpt lat="45.41942" lon="4.07636">
        <ele>784.09</ele>
        <time>2022-04-18T13:24:30Z</time>
      </trkpt>
      <trkpt lat="45.41921" lon="4.07681">
        <ele>783.61</ele>
        <time>2022-04-18T13:24:56Z</time>
      </trkpt>
      <trkpt lat="45.41905" lon="4.07715">
        <ele>784.09</ele>
        <time>2022-04-18T13:25:16Z</time>
      </trkpt>
      <trkpt lat="45.41898" lon="4.0776">
        <ele>788.42</ele>
        <time>2022-04-18T13:25:37Z</time>
      </trkpt>
      <trkpt lat="45.41886" lon="4.07792">
        <ele>791.78</ele>
        <time>2022-04-18T13:25:54Z</time>
      </trkpt>
      <trkpt lat="45.41877" lon="4.0783">
        <ele>795.15</ele>
        <time>2022-04-18T13:26:13Z</time>
      </trkpt>
      <trkpt lat="45.41861" lon="4.07862">
        <ele>801.4</ele>
        <time>2022-04-18T13:26:32Z</time>
      </trkpt>
      <trkpt lat="45.41835" lon="4.07888">
        <ele>808.13</ele>
        <time>2022-04-18T13:26:53Z</time>
      </trkpt>
      <trkpt lat="45.41818" lon="4.07943">
        <ele>811.97</ele>
        <time>2022-04-18T13:27:22Z</time>
      </trkpt>
      <trkpt lat="45.41809" lon="4.07992">
        <ele>813.41</ele>
        <time>2022-04-18T13:27:47Z</time>
      </trkpt>
      <trkpt lat="45.41798" lon="4.08044">
        <ele>815.34</ele>
        <time>2022-04-18T13:28:13Z</time>
      </trkpt>
      <trkpt lat="45.41791" lon="4.08094">
        <ele>815.34</ele>
        <time>2022-04-18T13:28:38Z</time>
      </trkpt>
      <trkpt lat="45.41782" lon="4.08137">
        <ele>813.89</ele>
        <time>2022-04-18T13:29:01Z</time>
      </trkpt>
      <trkpt lat="45.41756" lon="4.08165">
        <ele>810.05</ele>
        <time>2022-04-18T13:29:23Z</time>
      </trkpt>
      <trkpt lat="45.41729" lon="4.08186">
        <ele>806.68</ele>
        <time>2022-04-18T13:29:45Z</time>
      </trkpt>
      <trkpt lat="45.41701" lon="4.08206">
        <ele>802.84</ele>
        <time>2022-04-18T13:30:07Z</time>
      </trkpt>
      <trkpt lat="45.4167" lon="4.08228">
        <ele>799.47</ele>
        <time>2022-04-18T13:30:31Z</time>
      </trkpt>
      <trkpt lat="45.41644" lon="4.08256">
        <ele>798.03</ele>
        <time>2022-04-18T13:30:54Z</time>
      </trkpt>
      <trkpt lat="45.4162" lon="4.08287">
        <ele>797.07</ele>
        <time>2022-04-18T13:31:15Z</time>
      </trkpt>
      <trkpt lat="45.41609" lon="4.08325">
        <ele>794.67</ele>
        <time>2022-04-18T13:31:37Z</time>
      </trkpt>
      <trkpt lat="45.41635" lon="4.08331">
        <ele>792.74</ele>
        <time>2022-04-18T13:31:54Z</time>
      </trkpt>
      <trkpt lat="45.41671" lon="4.08338">
        <ele>791.3</ele>
        <time>2022-04-18T13:32:17Z</time>
      </trkpt>
      <trkpt lat="45.41708" lon="4.08352">
        <ele>787.94</ele>
        <time>2022-04-18T13:32:43Z</time>
      </trkpt>
      <trkpt lat="45.41739" lon="4.08375">
        <ele>785.05</ele>
        <time>2022-04-18T13:33:06Z</time>
      </trkpt>
      <trkpt lat="45.41766" lon="4.08399">
        <ele>788.42</ele>
        <time>2022-04-18T13:33:26Z</time>
      </trkpt>
      <trkpt lat="45.41788" lon="4.08434">
        <ele>788.42</ele>
        <time>2022-04-18T13:33:47Z</time>
      </trkpt>
      <trkpt lat="45.41811" lon="4.08473">
        <ele>788.9</ele>
        <time>2022-04-18T13:34:11Z</time>
      </trkpt>
      <trkpt lat="45.41826" lon="4.08523">
        <ele>788.9</ele>
        <time>2022-04-18T13:34:36Z</time>
      </trkpt>
      <trkpt lat="45.41852" lon="4.08562">
        <ele>786.02</ele>
        <time>2022-04-18T13:35:03Z</time>
      </trkpt>
      <trkpt lat="45.41869" lon="4.08594">
        <ele>781.69</ele>
        <time>2022-04-18T13:35:26Z</time>
      </trkpt>
      <trkpt lat="45.41894" lon="4.08591">
        <ele>776.88</ele>
        <time>2022-04-18T13:35:46Z</time>
      </trkpt>
      <trkpt lat="45.41925" lon="4.08579">
        <ele>773.52</ele>
        <time>2022-04-18T13:36:07Z</time>
      </trkpt>
      <trkpt lat="45.41953" lon="4.08574">
        <ele>772.08</ele>
        <time>2022-04-18T13:36:26Z</time>
      </trkpt>
      <trkpt lat="45.41982" lon="4.08572">
        <ele>768.23</ele>
        <time>2022-04-18T13:36:46Z</time>
      </trkpt>
      <trkpt lat="45.42005" lon="4.08573">
        <ele>765.83</ele>
        <time>2022-04-18T13:37:03Z</time>
      </trkpt>
      <trkpt lat="45.42029" lon="4.08587">
        <ele>765.35</ele>
        <time>2022-04-18T13:37:20Z</time>
      </trkpt>
      <trkpt lat="45.42045" lon="4.08624">
        <ele>767.27</ele>
        <time>2022-04-18T13:37:38Z</time>
      </trkpt>
      <trkpt lat="45.42054" lon="4.08662">
        <ele>767.27</ele>
        <time>2022-04-18T13:37:57Z</time>
      </trkpt>
      <trkpt lat="45.42064" lon="4.08706">
        <ele>767.75</ele>
        <time>2022-04-18T13:38:19Z</time>
      </trkpt>
      <trkpt lat="45.42072" lon="4.08744">
        <ele>766.79</ele>
        <time>2022-04-18T13:38:38Z</time>
      </trkpt>
      <trkpt lat="45.42084" lon="4.08796">
        <ele>768.23</ele>
        <time>2022-04-18T13:39:03Z</time>
      </trkpt>
      <trkpt lat="45.4209" lon="4.08829">
        <ele>768.23</ele>
        <time>2022-04-18T13:39:21Z</time>
      </trkpt>
      <trkpt lat="45.42105" lon="4.08864">
        <ele>768.23</ele>
        <time>2022-04-18T13:39:42Z</time>
      </trkpt>
      <trkpt lat="45.4212" lon="4.0889">
        <ele>764.39</ele>
        <time>2022-04-18T13:40:03Z</time>
      </trkpt>
      <trkpt lat="45.42133" lon="4.08914">
        <ele>761.5</ele>
        <time>2022-04-18T13:40:20Z</time>
      </trkpt>
      <trkpt lat="45.42158" lon="4.08935">
        <ele>755.25</ele>
        <time>2022-04-18T13:40:42Z</time>
      </trkpt>
      <trkpt lat="45.42181" lon="4.08947">
        <ele>750.45</ele>
        <time>2022-04-18T13:41:00Z</time>
      </trkpt>
      <trkpt lat="45.42204" lon="4.08952">
        <ele>743.72</ele>
        <time>2022-04-18T13:41:19Z</time>
      </trkpt>
      <trkpt lat="45.42228" lon="4.08969">
        <ele>741.31</ele>
        <time>2022-04-18T13:41:36Z</time>
      </trkpt>
      <trkpt lat="45.42254" lon="4.08999">
        <ele>741.31</ele>
        <time>2022-04-18T13:41:57Z</time>
      </trkpt>
      <trkpt lat="45.42255" lon="4.09001">
        <ele>741.31</ele>
        <time>2022-04-18T13:41:58Z</time>
      </trkpt>
      <trkpt lat="45.42268" lon="4.0903">
        <ele>737.47</ele>
        <time>2022-04-18T13:42:15Z</time>
      </trkpt>
      <trkpt lat="45.42285" lon="4.09069">
        <ele>736.03</ele>
        <time>2022-04-18T13:42:37Z</time>
      </trkpt>
      <trkpt lat="45.42303" lon="4.09103">
        <ele>735.07</ele>
        <time>2022-04-18T13:42:57Z</time>
      </trkpt>
      <trkpt lat="45.42324" lon="4.09129">
        <ele>734.58</ele>
        <time>2022-04-18T13:43:15Z</time>
      </trkpt>
      <trkpt lat="45.42341" lon="4.09164">
        <ele>733.14</ele>
        <time>2022-04-18T13:43:36Z</time>
      </trkpt>
      <trkpt lat="45.4235" lon="4.09195">
        <ele>731.22</ele>
        <time>2022-04-18T13:43:54Z</time>
      </trkpt>
      <trkpt lat="45.42356" lon="4.09228">
        <ele>731.22</ele>
        <time>2022-04-18T13:44:12Z</time>
      </trkpt>
      <trkpt lat="45.42362" lon="4.09262">
        <ele>726.89</ele>
        <time>2022-04-18T13:44:31Z</time>
      </trkpt>
      <trkpt lat="45.42369" lon="4.09297">
        <ele>724.01</ele>
        <time>2022-04-18T13:44:50Z</time>
      </trkpt>
      <trkpt lat="45.42372" lon="4.09323">
        <ele>720.16</ele>
        <time>2022-04-18T13:45:05Z</time>
      </trkpt>
      <trkpt lat="45.42376" lon="4.09375">
        <ele>718.72</ele>
        <time>2022-04-18T13:45:29Z</time>
      </trkpt>
      <trkpt lat="45.42378" lon="4.09418">
        <ele>716.32</ele>
        <time>2022-04-18T13:45:50Z</time>
      </trkpt>
      <trkpt lat="45.42378" lon="4.09455">
        <ele>713.92</ele>
        <time>2022-04-18T13:46:10Z</time>
      </trkpt>
      <trkpt lat="45.42388" lon="4.09503">
        <ele>710.55</ele>
        <time>2022-04-18T13:46:33Z</time>
      </trkpt>
      <trkpt lat="45.42402" lon="4.0955">
        <ele>708.15</ele>
        <time>2022-04-18T13:46:57Z</time>
      </trkpt>
      <trkpt lat="45.42414" lon="4.09595">
        <ele>708.15</ele>
        <time>2022-04-18T13:47:21Z</time>
      </trkpt>
      <trkpt lat="45.42428" lon="4.09646">
        <ele>707.19</ele>
        <time>2022-04-18T13:47:46Z</time>
      </trkpt>
      <trkpt lat="45.42439" lon="4.09692">
        <ele>705.75</ele>
        <time>2022-04-18T13:48:09Z</time>
      </trkpt>
      <trkpt lat="45.42451" lon="4.09736">
        <ele>705.75</ele>
        <time>2022-04-18T13:48:32Z</time>
      </trkpt>
      <trkpt lat="45.42463" lon="4.09784">
        <ele>704.78</ele>
        <time>2022-04-18T13:48:56Z</time>
      </trkpt>
      <trkpt lat="45.42471" lon="4.09829">
        <ele>705.75</ele>
        <time>2022-04-18T13:49:18Z</time>
      </trkpt>
      <trkpt lat="45.42483" lon="4.09879">
        <ele>704.78</ele>
        <time>2022-04-18T13:49:43Z</time>
      </trkpt>
      <trkpt lat="45.42495" lon="4.09925">
        <ele>704.3</ele>
        <time>2022-04-18T13:50:05Z</time>
      </trkpt>
      <trkpt lat="45.42509" lon="4.09972">
        <ele>700.46</ele>
        <time>2022-04-18T13:50:31Z</time>
      </trkpt>
      <trkpt lat="45.42522" lon="4.10008">
        <ele>699.98</ele>
        <time>2022-04-18T13:50:52Z</time>
      </trkpt>
      <trkpt lat="45.42533" lon="4.10045">
        <ele>698.05</ele>
        <time>2022-04-18T13:51:12Z</time>
      </trkpt>
      <trkpt lat="45.42547" lon="4.10084">
        <ele>698.05</ele>
        <time>2022-04-18T13:51:34Z</time>
      </trkpt>
      <trkpt lat="45.4256" lon="4.10126">
        <ele>698.53</ele>
        <time>2022-04-18T13:51:57Z</time>
      </trkpt>
      <trkpt lat="45.42575" lon="4.10174">
        <ele>693.73</ele>
        <time>2022-04-18T13:52:23Z</time>
      </trkpt>
      <trkpt lat="45.42586" lon="4.10211">
        <ele>692.29</ele>
        <time>2022-04-18T13:52:43Z</time>
      </trkpt>
      <trkpt lat="45.42602" lon="4.10246">
        <ele>690.36</ele>
        <time>2022-04-18T13:53:04Z</time>
      </trkpt>
      <trkpt lat="45.42616" lon="4.10269">
        <ele>688.92</ele>
        <time>2022-04-18T13:53:19Z</time>
      </trkpt>
      <trkpt lat="45.42629" lon="4.10299">
        <ele>685.08</ele>
        <time>2022-04-18T13:53:37Z</time>
      </trkpt>
      <trkpt lat="45.42648" lon="4.1033">
        <ele>682.67</ele>
        <time>2022-04-18T13:53:57Z</time>
      </trkpt>
      <trkpt lat="45.42663" lon="4.10356">
        <ele>682.19</ele>
        <time>2022-04-18T13:54:15Z</time>
      </trkpt>
      <trkpt lat="45.42679" lon="4.10384">
        <ele>679.79</ele>
        <time>2022-04-18T13:54:33Z</time>
      </trkpt>
      <trkpt lat="45.42691" lon="4.10421">
        <ele>678.83</ele>
        <time>2022-04-18T13:54:52Z</time>
      </trkpt>
      <trkpt lat="45.42697" lon="4.10457">
        <ele>681.23</ele>
        <time>2022-04-18T13:55:09Z</time>
      </trkpt>
      <trkpt lat="45.42705" lon="4.10502">
        <ele>680.75</ele>
        <time>2022-04-18T13:55:29Z</time>
      </trkpt>
      <trkpt lat="45.42712" lon="4.10537">
        <ele>677.87</ele>
        <time>2022-04-18T13:55:46Z</time>
      </trkpt>
      <trkpt lat="45.42721" lon="4.10576">
        <ele>675.94</ele>
        <time>2022-04-18T13:56:06Z</time>
      </trkpt>
      <trkpt lat="45.42727" lon="4.10621">
        <ele>675.94</ele>
        <time>2022-04-18T13:56:27Z</time>
      </trkpt>
      <trkpt lat="45.42736" lon="4.10649">
        <ele>673.06</ele>
        <time>2022-04-18T13:56:45Z</time>
      </trkpt>
      <trkpt lat="45.42745" lon="4.10687">
        <ele>669.22</ele>
        <time>2022-04-18T13:57:05Z</time>
      </trkpt>
      <trkpt lat="45.42757" lon="4.10729">
        <ele>665.37</ele>
        <time>2022-04-18T13:57:27Z</time>
      </trkpt>
      <trkpt lat="45.4276" lon="4.10758">
        <ele>663.93</ele>
        <time>2022-04-18T13:57:43Z</time>
      </trkpt>
      <trkpt lat="45.42767" lon="4.1077">
        <ele>661.52</ele>
        <time>2022-04-18T13:57:53Z</time>
      </trkpt>
      <trkpt lat="45.42784" lon="4.10802">
        <ele>657.2</ele>
        <time>2022-04-18T13:58:15Z</time>
      </trkpt>
      <trkpt lat="45.42796" lon="4.10826">
        <ele>653.35</ele>
        <time>2022-04-18T13:58:30Z</time>
      </trkpt>
      <trkpt lat="45.42802" lon="4.10836">
        <ele>651.91</ele>
        <time>2022-04-18T13:58:37Z</time>
      </trkpt>
      <trkpt lat="45.42826" lon="4.10859">
        <ele>650.47</ele>
        <time>2022-04-18T13:58:58Z</time>
      </trkpt>
      <trkpt lat="45.42853" lon="4.10895">
        <ele>646.62</ele>
        <time>2022-04-18T13:59:22Z</time>
      </trkpt>
      <trkpt lat="45.42868" lon="4.10914">
        <ele>645.18</ele>
        <time>2022-04-18T13:59:37Z</time>
      </trkpt>
      <trkpt lat="45.42885" lon="4.10955">
        <ele>645.66</ele>
        <time>2022-04-18T13:59:59Z</time>
      </trkpt>
      <trkpt lat="45.42903" lon="4.11008">
        <ele>645.18</ele>
        <time>2022-04-18T14:00:26Z</time>
      </trkpt>
      <trkpt lat="45.4291" lon="4.1105">
        <ele>644.22</ele>
        <time>2022-04-18T14:00:47Z</time>
      </trkpt>
      <trkpt lat="45.42913" lon="4.11081">
        <ele>643.26</ele>
        <time>2022-04-18T14:01:04Z</time>
      </trkpt>
      <trkpt lat="45.42915" lon="4.11112">
        <ele>640.38</ele>
        <time>2022-04-18T14:01:21Z</time>
      </trkpt>
      <trkpt lat="45.42923" lon="4.11162">
        <ele>636.53</ele>
        <time>2022-04-18T14:01:45Z</time>
      </trkpt>
      <trkpt lat="45.4293" lon="4.11196">
        <ele>633.17</ele>
        <time>2022-04-18T14:02:02Z</time>
      </trkpt>
      <trkpt lat="45.42939" lon="4.11233">
        <ele>633.17</ele>
        <time>2022-04-18T14:02:20Z</time>
      </trkpt>
      <trkpt lat="45.42937" lon="4.11269">
        <ele>632.68</ele>
        <time>2022-04-18T14:02:38Z</time>
      </trkpt>
      <trkpt lat="45.42913" lon="4.11278">
        <ele>628.84</ele>
        <time>2022-04-18T14:02:56Z</time>
      </trkpt>
      <trkpt lat="45.42887" lon="4.11285">
        <ele>627.88</ele>
        <time>2022-04-18T14:03:15Z</time>
      </trkpt>
      <trkpt lat="45.42859" lon="4.11291">
        <ele>627.4</ele>
        <time>2022-04-18T14:03:34Z</time>
      </trkpt>
      <trkpt lat="45.42838" lon="4.11297">
        <ele>626.44</ele>
        <time>2022-04-18T14:03:51Z</time>
      </trkpt>
      <trkpt lat="45.42824" lon="4.113">
        <ele>623.07</ele>
        <time>2022-04-18T14:04:03Z</time>
      </trkpt>
      <trkpt lat="45.42796" lon="4.11306">
        <ele>621.15</ele>
        <time>2022-04-18T14:04:22Z</time>
      </trkpt>
      <trkpt lat="45.42784" lon="4.11337">
        <ele>624.03</ele>
        <time>2022-04-18T14:04:39Z</time>
      </trkpt>
      <trkpt lat="45.42786" lon="4.1138">
        <ele>625.47</ele>
        <time>2022-04-18T14:05:00Z</time>
      </trkpt>
      <trkpt lat="45.4279" lon="4.11426">
        <ele>625.96</ele>
        <time>2022-04-18T14:05:22Z</time>
      </trkpt>
      <trkpt lat="45.42805" lon="4.11464">
        <ele>624.51</ele>
        <time>2022-04-18T14:05:43Z</time>
      </trkpt>
      <trkpt lat="45.42821" lon="4.11498">
        <ele>622.11</ele>
        <time>2022-04-18T14:06:05Z</time>
      </trkpt>
      <trkpt lat="45.42845" lon="4.11526">
        <ele>618.75</ele>
        <time>2022-04-18T14:06:26Z</time>
      </trkpt>
      <trkpt lat="45.42868" lon="4.11563">
        <ele>615.38</ele>
        <time>2022-04-18T14:06:49Z</time>
      </trkpt>
      <trkpt lat="45.42888" lon="4.11605">
        <ele>613.46</ele>
        <time>2022-04-18T14:07:13Z</time>
      </trkpt>
      <trkpt lat="45.42908" lon="4.11648">
        <ele>611.06</ele>
        <time>2022-04-18T14:07:37Z</time>
      </trkpt>
      <trkpt lat="45.42927" lon="4.11696">
        <ele>610.57</ele>
        <time>2022-04-18T14:08:03Z</time>
      </trkpt>
      <trkpt lat="45.42948" lon="4.11752">
        <ele>608.65</ele>
        <time>2022-04-18T14:08:33Z</time>
      </trkpt>
      <trkpt lat="45.42968" lon="4.11794">
        <ele>605.77</ele>
        <time>2022-04-18T14:08:57Z</time>
      </trkpt>
      <trkpt lat="45.42985" lon="4.11832">
        <ele>602.88</ele>
        <time>2022-04-18T14:09:18Z</time>
      </trkpt>
      <trkpt lat="45.43001" lon="4.11873">
        <ele>600.96</ele>
        <time>2022-04-18T14:09:39Z</time>
      </trkpt>
      <trkpt lat="45.4301" lon="4.11902">
        <ele>598.56</ele>
        <time>2022-04-18T14:09:56Z</time>
      </trkpt>
      <trkpt lat="45.43019" lon="4.11933">
        <ele>593.75</ele>
        <time>2022-04-18T14:10:14Z</time>
      </trkpt>
      <trkpt lat="45.43045" lon="4.11953">
        <ele>588.46</ele>
        <time>2022-04-18T14:10:33Z</time>
      </trkpt>
      <trkpt lat="45.43078" lon="4.11981">
        <ele>585.58</ele>
        <time>2022-04-18T14:10:56Z</time>
      </trkpt>
      <trkpt lat="45.4311" lon="4.12006">
        <ele>582.7</ele>
        <time>2022-04-18T14:11:20Z</time>
      </trkpt>
      <trkpt lat="45.43139" lon="4.12024">
        <ele>583.66</ele>
        <time>2022-04-18T14:11:39Z</time>
      </trkpt>
      <trkpt lat="45.43158" lon="4.12047">
        <ele>583.66</ele>
        <time>2022-04-18T14:11:54Z</time>
      </trkpt>
      <trkpt lat="45.43177" lon="4.12068">
        <ele>582.7</ele>
        <time>2022-04-18T14:12:09Z</time>
      </trkpt>
      <trkpt lat="45.43199" lon="4.12082">
        <ele>582.22</ele>
        <time>2022-04-18T14:12:24Z</time>
      </trkpt>
      <trkpt lat="45.43222" lon="4.12097">
        <ele>582.22</ele>
        <time>2022-04-18T14:12:38Z</time>
      </trkpt>
      <trkpt lat="45.43242" lon="4.12119">
        <ele>584.62</ele>
        <time>2022-04-18T14:12:53Z</time>
      </trkpt>
      <trkpt lat="45.43233" lon="4.12145">
        <ele>592.31</ele>
        <time>2022-04-18T14:13:08Z</time>
      </trkpt>
      <trkpt lat="45.4323" lon="4.1218">
        <ele>596.15</ele>
        <time>2022-04-18T14:13:26Z</time>
      </trkpt>
      <trkpt lat="45.4323" lon="4.12195">
        <ele>595.67</ele>
        <time>2022-04-18T14:13:34Z</time>
      </trkpt>
      <trkpt lat="45.43226" lon="4.12218">
        <ele>596.64</ele>
        <time>2022-04-18T14:13:46Z</time>
      </trkpt>
      <trkpt lat="45.43225" lon="4.12223">
        <ele>597.12</ele>
        <time>2022-04-18T14:13:48Z</time>
      </trkpt>
      <trkpt lat="45.43228" lon="4.12253">
        <ele>598.08</ele>
        <time>2022-04-18T14:14:05Z</time>
      </trkpt>
      <trkpt lat="45.43228" lon="4.12255">
        <ele>598.08</ele>
        <time>2022-04-18T14:14:06Z</time>
      </trkpt>
      <trkpt lat="45.43233" lon="4.12281">
        <ele>600.96</ele>
        <time>2022-04-18T14:14:20Z</time>
      </trkpt>
      <trkpt lat="45.43241" lon="4.12306">
        <ele>599.52</ele>
        <time>2022-04-18T14:14:35Z</time>
      </trkpt>
      <trkpt lat="45.43256" lon="4.12338">
        <ele>595.67</ele>
        <time>2022-04-18T14:14:51Z</time>
      </trkpt>
      <trkpt lat="45.43259" lon="4.12346">
        <ele>594.71</ele>
        <time>2022-04-18T14:14:56Z</time>
      </trkpt>
      <trkpt lat="45.43263" lon="4.12359">
        <ele>594.71</ele>
        <time>2022-04-18T14:15:02Z</time>
      </trkpt>
      <trkpt lat="45.43271" lon="4.12388">
        <ele>595.67</ele>
        <time>2022-04-18T14:15:16Z</time>
      </trkpt>
      <trkpt lat="45.43277" lon="4.12401">
        <ele>595.67</ele>
        <time>2022-04-18T14:15:23Z</time>
      </trkpt>
      <trkpt lat="45.43291" lon="4.1243">
        <ele>594.23</ele>
        <time>2022-04-18T14:15:37Z</time>
      </trkpt>
      <trkpt lat="45.43297" lon="4.1244">
        <ele>594.71</ele>
        <time>2022-04-18T14:15:43Z</time>
      </trkpt>
      <trkpt lat="45.4332" lon="4.12473">
        <ele>591.83</ele>
        <time>2022-04-18T14:15:56Z</time>
      </trkpt>
      <trkpt lat="45.43334" lon="4.12503">
        <ele>590.39</ele>
        <time>2022-04-18T14:16:10Z</time>
      </trkpt>
      <trkpt lat="45.43342" lon="4.12532">
        <ele>588.95</ele>
        <time>2022-04-18T14:16:24Z</time>
      </trkpt>
      <trkpt lat="45.43345" lon="4.12576">
        <ele>591.83</ele>
        <time>2022-04-18T14:16:43Z</time>
      </trkpt>
      <trkpt lat="45.43339" lon="4.12608">
        <ele>592.79</ele>
        <time>2022-04-18T14:16:59Z</time>
      </trkpt>
      <trkpt lat="45.43333" lon="4.12632">
        <ele>594.23</ele>
        <time>2022-04-18T14:17:10Z</time>
      </trkpt>
      <trkpt lat="45.43333" lon="4.12635">
        <ele>594.71</ele>
        <time>2022-04-18T14:17:11Z</time>
      </trkpt>
      <trkpt lat="45.43334" lon="4.12637">
        <ele>594.71</ele>
        <time>2022-04-18T14:17:12Z</time>
      </trkpt>
      <trkpt lat="45.43334" lon="4.12639">
        <ele>594.71</ele>
        <time>2022-04-18T14:17:13Z</time>
      </trkpt>
      <trkpt lat="45.43336" lon="4.12639">
        <ele>594.71</ele>
        <time>2022-04-18T14:17:14Z</time>
      </trkpt>
      <trkpt lat="45.43337" lon="4.1264">
        <ele>594.71</ele>
        <time>2022-04-18T14:17:15Z</time>
      </trkpt>
      <trkpt lat="45.43338" lon="4.12641">
        <ele>594.23</ele>
        <time>2022-04-18T14:17:16Z</time>
      </trkpt>
      <trkpt lat="45.4336" lon="4.12667">
        <ele>592.79</ele>
        <time>2022-04-18T14:17:34Z</time>
      </trkpt>
      <trkpt lat="45.43384" lon="4.12702">
        <ele>590.39</ele>
        <time>2022-04-18T14:17:52Z</time>
      </trkpt>
      <trkpt lat="45.43401" lon="4.12741">
        <ele>588.46</ele>
        <time>2022-04-18T14:18:12Z</time>
      </trkpt>
      <trkpt lat="45.43409" lon="4.12773">
        <ele>589.43</ele>
        <time>2022-04-18T14:18:24Z</time>
      </trkpt>
      <trkpt lat="45.43429" lon="4.128">
        <ele>590.87</ele>
        <time>2022-04-18T14:18:42Z</time>
      </trkpt>
      <trkpt lat="45.43446" lon="4.12821">
        <ele>590.39</ele>
        <time>2022-04-18T14:18:55Z</time>
      </trkpt>
      <trkpt lat="45.43451" lon="4.12859">
        <ele>591.83</ele>
        <time>2022-04-18T14:19:14Z</time>
      </trkpt>
      <trkpt lat="45.43454" lon="4.12902">
        <ele>591.35</ele>
        <time>2022-04-18T14:19:33Z</time>
      </trkpt>
      <trkpt lat="45.43467" lon="4.12939">
        <ele>587.98</ele>
        <time>2022-04-18T14:19:53Z</time>
      </trkpt>
      <trkpt lat="45.43483" lon="4.12975">
        <ele>585.58</ele>
        <time>2022-04-18T14:20:12Z</time>
      </trkpt>
      <trkpt lat="45.43479" lon="4.13019">
        <ele>587.5</ele>
        <time>2022-04-18T14:20:28Z</time>
      </trkpt>
      <trkpt lat="45.43479" lon="4.13064">
        <ele>589.43</ele>
        <time>2022-04-18T14:20:47Z</time>
      </trkpt>
      <trkpt lat="45.43477" lon="4.13106">
        <ele>590.39</ele>
        <time>2022-04-18T14:21:05Z</time>
      </trkpt>
      <trkpt lat="45.43478" lon="4.13154">
        <ele>591.83</ele>
        <time>2022-04-18T14:21:27Z</time>
      </trkpt>
      <trkpt lat="45.43483" lon="4.13198">
        <ele>592.31</ele>
        <time>2022-04-18T14:21:47Z</time>
      </trkpt>
      <trkpt lat="45.43489" lon="4.13244">
        <ele>591.35</ele>
        <time>2022-04-18T14:22:09Z</time>
      </trkpt>
      <trkpt lat="45.43499" lon="4.13286">
        <ele>590.87</ele>
        <time>2022-04-18T14:22:30Z</time>
      </trkpt>
      <trkpt lat="45.4351" lon="4.13318">
        <ele>587.5</ele>
        <time>2022-04-18T14:22:48Z</time>
      </trkpt>
      <trkpt lat="45.43512" lon="4.13318">
        <ele>587.02</ele>
        <time>2022-04-18T14:22:49Z</time>
      </trkpt>
      <trkpt lat="45.43514" lon="4.13317">
        <ele>586.54</ele>
        <time>2022-04-18T14:22:50Z</time>
      </trkpt>
      <trkpt lat="45.43515" lon="4.13316">
        <ele>586.54</ele>
        <time>2022-04-18T14:22:51Z</time>
      </trkpt>
      <trkpt lat="45.43516" lon="4.13314">
        <ele>586.06</ele>
        <time>2022-04-18T14:22:52Z</time>
      </trkpt>
      <trkpt lat="45.43517" lon="4.13312">
        <ele>586.06</ele>
        <time>2022-04-18T14:22:53Z</time>
      </trkpt>
      <trkpt lat="45.43541" lon="4.13278">
        <ele>585.58</ele>
        <time>2022-04-18T14:23:14Z</time>
      </trkpt>
      <trkpt lat="45.43566" lon="4.1325">
        <ele>587.98</ele>
        <time>2022-04-18T14:23:35Z</time>
      </trkpt>
      <trkpt lat="45.43593" lon="4.13226">
        <ele>590.39</ele>
        <time>2022-04-18T14:23:55Z</time>
      </trkpt>
      <trkpt lat="45.43616" lon="4.1321">
        <ele>590.87</ele>
        <time>2022-04-18T14:24:12Z</time>
      </trkpt>
      <trkpt lat="45.43645" lon="4.13186">
        <ele>591.35</ele>
        <time>2022-04-18T14:24:35Z</time>
      </trkpt>
      <trkpt lat="45.43672" lon="4.1316">
        <ele>592.31</ele>
        <time>2022-04-18T14:24:56Z</time>
      </trkpt>
      <trkpt lat="45.43694" lon="4.13136">
        <ele>593.75</ele>
        <time>2022-04-18T14:25:10Z</time>
      </trkpt>
      <trkpt lat="45.43725" lon="4.13121">
        <ele>597.6</ele>
        <time>2022-04-18T14:25:28Z</time>
      </trkpt>
      <trkpt lat="45.43754" lon="4.13103">
        <ele>600.48</ele>
        <time>2022-04-18T14:25:49Z</time>
      </trkpt>
      <trkpt lat="45.43785" lon="4.13082">
        <ele>602.88</ele>
        <time>2022-04-18T14:26:09Z</time>
      </trkpt>
      <trkpt lat="45.4382" lon="4.13063">
        <ele>604.33</ele>
        <time>2022-04-18T14:26:32Z</time>
      </trkpt>
      <trkpt lat="45.43854" lon="4.13052">
        <ele>606.73</ele>
        <time>2022-04-18T14:26:54Z</time>
      </trkpt>
      <trkpt lat="45.43885" lon="4.1304">
        <ele>609.61</ele>
        <time>2022-04-18T14:27:15Z</time>
      </trkpt>
      <trkpt lat="45.43916" lon="4.13021">
        <ele>611.06</ele>
        <time>2022-04-18T14:27:36Z</time>
      </trkpt>
      <trkpt lat="45.43944" lon="4.12999">
        <ele>612.98</ele>
        <time>2022-04-18T14:27:58Z</time>
      </trkpt>
      <trkpt lat="45.43971" lon="4.12985">
        <ele>614.42</ele>
        <time>2022-04-18T14:28:14Z</time>
      </trkpt>
      <trkpt lat="45.44001" lon="4.12975">
        <ele>615.86</ele>
        <time>2022-04-18T14:28:32Z</time>
      </trkpt>
      <trkpt lat="45.4403" lon="4.12972">
        <ele>618.75</ele>
        <time>2022-04-18T14:28:50Z</time>
      </trkpt>
      <trkpt lat="45.4407" lon="4.12978">
        <ele>621.15</ele>
        <time>2022-04-18T14:29:16Z</time>
      </trkpt>
      <trkpt lat="45.44098" lon="4.12978">
        <ele>621.63</ele>
        <time>2022-04-18T14:29:35Z</time>
      </trkpt>
      <trkpt lat="45.44132" lon="4.12988">
        <ele>621.63</ele>
        <time>2022-04-18T14:29:59Z</time>
      </trkpt>
      <trkpt lat="45.44168" lon="4.13">
        <ele>620.67</ele>
        <time>2022-04-18T14:30:23Z</time>
      </trkpt>
      <trkpt lat="45.44203" lon="4.13016">
        <ele>619.23</ele>
        <time>2022-04-18T14:30:46Z</time>
      </trkpt>
      <trkpt lat="45.44238" lon="4.13031">
        <ele>617.3</ele>
        <time>2022-04-18T14:31:11Z</time>
      </trkpt>
      <trkpt lat="45.4427" lon="4.13035">
        <ele>617.3</ele>
        <time>2022-04-18T14:31:29Z</time>
      </trkpt>
      <trkpt lat="45.443" lon="4.1302">
        <ele>616.34</ele>
        <time>2022-04-18T14:31:51Z</time>
      </trkpt>
      <trkpt lat="45.44331" lon="4.13007">
        <ele>617.78</ele>
        <time>2022-04-18T14:32:12Z</time>
      </trkpt>
      <trkpt lat="45.44367" lon="4.12991">
        <ele>619.23</ele>
        <time>2022-04-18T14:32:36Z</time>
      </trkpt>
      <trkpt lat="45.44385" lon="4.13012">
        <ele>619.23</ele>
        <time>2022-04-18T14:32:52Z</time>
      </trkpt>
      <trkpt lat="45.44397" lon="4.1305">
        <ele>619.23</ele>
        <time>2022-04-18T14:33:11Z</time>
      </trkpt>
      <trkpt lat="45.44418" lon="4.13065">
        <ele>617.78</ele>
        <time>2022-04-18T14:33:30Z</time>
      </trkpt>
      <trkpt lat="45.44447" lon="4.13051">
        <ele>617.3</ele>
        <time>2022-04-18T14:33:50Z</time>
      </trkpt>
      <trkpt lat="45.4448" lon="4.13056">
        <ele>618.75</ele>
        <time>2022-04-18T14:34:11Z</time>
      </trkpt>
      <trkpt lat="45.4451" lon="4.13073">
        <ele>619.23</ele>
        <time>2022-04-18T14:34:31Z</time>
      </trkpt>
      <trkpt lat="45.44529" lon="4.13097">
        <ele>618.75</ele>
        <time>2022-04-18T14:34:48Z</time>
      </trkpt>
      <trkpt lat="45.44556" lon="4.1312">
        <ele>619.71</ele>
        <time>2022-04-18T14:35:08Z</time>
      </trkpt>
      <trkpt lat="45.44577" lon="4.13124">
        <ele>623.07</ele>
        <time>2022-04-18T14:35:23Z</time>
      </trkpt>
      <trkpt lat="45.44577" lon="4.13123">
        <ele>623.55</ele>
        <time>2022-04-18T14:35:24Z</time>
      </trkpt>
      <trkpt lat="45.44575" lon="4.13118">
        <ele>624.99</ele>
        <time>2022-04-18T14:35:32Z</time>
      </trkpt>
      <trkpt lat="45.44563" lon="4.13102">
        <ele>622.59</ele>
        <time>2022-04-18T14:35:44Z</time>
      </trkpt>
      <trkpt lat="45.44562" lon="4.13099">
        <ele>622.59</ele>
        <time>2022-04-18T14:36:02Z</time>
      </trkpt>
      <trkpt lat="45.44563" lon="4.13095">
        <ele>621.15</ele>
        <time>2022-04-18T14:36:21Z</time>
      </trkpt>
      <trkpt lat="45.44563" lon="4.13094">
        <ele>621.15</ele>
        <time>2022-04-18T14:36:22Z</time>
      </trkpt>
      <trkpt lat="45.44564" lon="4.13094">
        <ele>621.15</ele>
        <time>2022-04-18T14:36:23Z</time>
      </trkpt>
      <trkpt lat="45.44571" lon="4.13084">
        <ele>622.11</ele>
        <time>2022-04-18T14:36:36Z</time>
      </trkpt>
      <trkpt lat="45.44573" lon="4.13074">
        <ele>621.63</ele>
        <time>2022-04-18T14:36:53Z</time>
      </trkpt>
      <trkpt lat="45.44575" lon="4.13072">
        <ele>619.71</ele>
        <time>2022-04-18T14:37:14Z</time>
      </trkpt>
      <trkpt lat="45.44575" lon="4.13071">
        <ele>620.19</ele>
        <time>2022-04-18T14:37:42Z</time>
      </trkpt>
      <trkpt lat="45.44573" lon="4.13072">
        <ele>621.63</ele>
        <time>2022-04-18T14:38:05Z</time>
      </trkpt>
    </trkseg>
  </trk>
</gpx>